Observation data for Canadian on 04/23/2019      Previous  Date  Next       Current Mesonet Observations  Soil Data  Daily Summary Page  Observations in Plain Language
KCA1 230500Z 01009KT 14/12 A3006 RMK A01 T01380121  RH  089%=      5-min Rain = 0
KCA1 230501Z 01010KT 14/12 A3006 RMK A01 T01380121  RH  089%=      5-min Rain = 0
KCA1 230502Z 02009KT 14/12 A3006 RMK A01 T01390120  RH  089%=      5-min Rain = 0
KCA1 230503Z 02009KT 14/12 A3006 RMK A01 T01390120  RH  088%=      5-min Rain = 0
KCA1 230504Z 02009KT 14/12 A3006 RMK A01 T01390120  RH  088%=      5-min Rain = 0
KCA1 230505Z 02008KT 14/12 A3007 RMK A01 T01400120  RH  088%=      5-min Rain = 0
KCA1 230506Z 02007KT 14/12 A3007 RMK A01 T01400120  RH  088%=      5-min Rain = 0
KCA1 230507Z 02008KT 14/12 A3007 RMK A01 T01400121  RH  088%=      5-min Rain = 0
KCA1 230508Z 02008KT 14/12 A3007 RMK A01 T01400121  RH  088%=      5-min Rain = 0
KCA1 230509Z 03008KT 14/12 A3007 RMK A01 T01400121  RH  088%=      5-min Rain = 0
KCA1 230510Z 03008KT 14/12 A3007 RMK A01 T01400120  RH  088%=      5-min Rain = 0
KCA1 230511Z 03008KT 14/12 A3007 RMK A01 T01400120  RH  088%=      5-min Rain = 0
KCA1 230512Z 03008KT 14/12 A3007 RMK A01 T01410121  RH  088%=      5-min Rain = 0
KCA1 230513Z 03007KT 14/12 A3007 RMK A01 T01400121  RH  088%=      5-min Rain = 0
KCA1 230514Z 03008KT 14/12 A3008 RMK A01 T01400121  RH  088%=      5-min Rain = 0
KCA1 230515Z 03007KT 14/12 A3008 RMK A01 T01400121  RH  088%=      5-min Rain = 0
KCA1 230516Z 03007KT 14/12 A3008 RMK A01 T01400122  RH  089%=      5-min Rain = 0.01
KCA1 230517Z 03006KT 14/12 A3008 RMK A01 T01400122  RH  089%=      5-min Rain = 0
KCA1 230518Z 03006KT 14/12 A3008 RMK A01 T01390122  RH  089%=      5-min Rain = 0
KCA1 230519Z 04005KT 14/12 A3008 RMK A01 T01390123  RH  090%=      5-min Rain = 0
KCA1 230520Z 04006KT 14/12 A3008 RMK A01 T01380123  RH  090%=      5-min Rain = 0
KCA1 230521Z 04005KT 14/12 A3009 RMK A01 T01380123  RH  091%=      5-min Rain = 0
KCA1 230522Z 05005KT 14/12 A3009 RMK A01 T01380123  RH  091%=      5-min Rain = 0
KCA1 230523Z 04005KT 14/12 A3009 RMK A01 T01370123  RH  091%=      5-min Rain = 0
KCA1 230524Z 04005KT 14/12 A3009 RMK A01 T01370123  RH  091%=      5-min Rain = 0.01
KCA1 230525Z 04005KT 14/12 A3009 RMK A01 T01370123  RH  091%=      5-min Rain = 0
KCA1 230526Z 04005KT 14/12 A3009 RMK A01 T01370124  RH  092%=      5-min Rain = 0
KCA1 230527Z 03005KT 14/12 A3009 RMK A01 T01370124  RH  092%=      5-min Rain = 0.01
KCA1 230528Z 03004KT 14/12 A3009 RMK A01 T01360124  RH  092%=      5-min Rain = 0
KCA1 230529Z 02004KT 14/13 A3009 RMK A01 T01360125  RH  093%=      5-min Rain = 0
KCA1 230530Z 02005KT 14/13 A3009 RMK A01 T01360125  RH  093%=      5-min Rain = 0
KCA1 230531Z 01004KT 14/13 A301 RMK A01 T01350125  RH  094%=      5-min Rain = 0.01
KCA1 230532Z 01004KT 14/13 A301 RMK A01 T01350125  RH  094%=      5-min Rain = 0
KCA1 230533Z 00004KT 14/13 A301 RMK A01 T01350125  RH  094%=      5-min Rain = 0
KCA1 230534Z 36003KT 14/13 A301 RMK A01 T01350126  RH  094%=      5-min Rain = 0
KCA1 230535Z 35003KT 14/13 A301 RMK A01 T01350126  RH  094%=      5-min Rain = 0
KCA1 230536Z 34002KT 13/13 A301 RMK A01 T01340127  RH  095%=      5-min Rain = 0.01
KCA1 230537Z 31002KT 13/13 A301 RMK A01 T01340127  RH  095%=      5-min Rain = 0
KCA1 230538Z 30003KT 13/13 A301 RMK A01 T01340127  RH  095%=      5-min Rain = 0.01
KCA1 230539Z 27003KT 13/13 A301 RMK A01 T01340127  RH  096%=      5-min Rain = 0
KCA1 230540Z 25004KT 13/13 A301 RMK A01 T01330128  RH  097%=      5-min Rain = 0
KCA1 230541Z 25005KT 13/13 A301 RMK A01 T01330129  RH  097%=      5-min Rain = 0.01
KCA1 230542Z 25005KT 13/13 A3011 RMK A01 T01320129  RH  098%=      5-min Rain = 0
KCA1 230543Z 25004KT 13/13 A3011 RMK A01 T01320129  RH  098%=      5-min Rain = 0
KCA1 230544Z 25004KT 13/13 A3011 RMK A01 T01320129  RH  098%=      5-min Rain = 0
KCA1 230545Z 25004KT 13/13 A3011 RMK A01 T01310129  RH  099%=      5-min Rain = 0
KCA1 230546Z 25004KT 13/13 A3011 RMK A01 T01310130  RH  099%=      5-min Rain = 0.01
KCA1 230547Z 26003KT 13/13 A3011 RMK A01 T01310130  RH  099%=      5-min Rain = 0
KCA1 230548Z 26003KT 13/13 A3011 RMK A01 T01310130  RH  099%=      5-min Rain = 0.01
KCA1 230549Z 27003KT 13/13 A3011 RMK A01 T01300130  RH  100%=      5-min Rain = 0
KCA1 230550Z 27004KT 13/13 A3011 RMK A01 T01300130  RH  100%=      5-min Rain = 0.01
KCA1 230551Z 27004KT 13/13 A3011 RMK A01 T01300130  RH  100%=      5-min Rain = 0
KCA1 230552Z 28004KT 13/13 A3011 RMK A01 T01300130  RH  100%=      5-min Rain = 0.01
KCA1 230553Z 30003KT 13/13 A3011 RMK A01 T01300130  RH  100%=      5-min Rain = 0
KCA1 230554Z 31002KT 13/13 A3011 RMK A01 T01300130  RH  100%=      5-min Rain = 0.01
KCA1 230555Z 33001KT 13/13 A3011 RMK A01 T01300130  RH  100%=      5-min Rain = 0
KCA1 230556Z 33002KT 13/13 A3011 RMK A01 T01300130  RH  100%=      5-min Rain = 0
KCA1 230557Z 30002KT 13/13 A3011 RMK A01 T01300130  RH  100%=      5-min Rain = 0.01
KCA1 230558Z 31002KT 13/13 A301 RMK A01 T01300130  RH  100%=      5-min Rain = 0.01
KCA1 230559Z 32002KT 13/13 A301 RMK A01 T01300130  RH  100%=      5-min Rain = 0
KCA1 230600Z 32002KT 13/13 A301 RMK A01 T01300130  RH  100%=      5-min Rain = 0.01
KCA1 230601Z 34001KT 13/13 A301 RMK A01 T01300130  RH  100%=      5-min Rain = 0
KCA1 230602Z 34002KT 13/13 A301 RMK A01 T01300130  RH  100%=      5-min Rain = 0.01
KCA1 230603Z 34002KT 13/13 A301 RMK A01 T01300130  RH  100%=      5-min Rain = 0
KCA1 230604Z 35002KT 13/13 A301 RMK A01 T01300130  RH  100%=      5-min Rain = 0
KCA1 230605Z 36001KT 13/13 A3011 RMK A01 T01300130  RH  100%=      5-min Rain = 0.01
KCA1 230606Z 35001KT 13/13 A3011 RMK A01 T01300130  RH  100%=      5-min Rain = 0
KCA1 230607Z 35001KT 13/13 A3011 RMK A01 T01300130  RH  100%=      5-min Rain = 0
KCA1 230608Z 34001KT 13/13 A3011 RMK A01 T01300130  RH  100%=      5-min Rain = 0.01
KCA1 230609Z 33001KT 13/13 A3011 RMK A01 T01300130  RH  100%=      5-min Rain = 0
KCA1 230610Z 36002KT 13/13 A3011 RMK A01 T01300130  RH  100%=      5-min Rain = 0.01
KCA1 230611Z 34002KT 13/13 A3011 RMK A01 T01300130  RH  100%=      5-min Rain = 0
KCA1 230612Z 35002KT 13/13 A3011 RMK A01 T01300130  RH  100%=      5-min Rain = 0
KCA1 230613Z 35002KT 13/13 A3011 RMK A01 T01300130  RH  100%=      5-min Rain = 0.01
KCA1 230614Z 36001KT 13/13 A3011 RMK A01 T01300130  RH  100%=      5-min Rain = 0
KCA1 230615Z 36002KT 13/13 A3011 RMK A01 T01300130  RH  100%=      5-min Rain = 0
KCA1 230616Z 36002KT 13/13 A3011 RMK A01 T01300130  RH  100%=      5-min Rain = 0
KCA1 230617Z 35002KT 13/13 A3011 RMK A01 T01300130  RH  100%=      5-min Rain = 0.01
KCA1 230618Z 35002KT 13/13 A3011 RMK A01 T01300130  RH  100%=      5-min Rain = 0
KCA1 230619Z 35003KT 13/13 A3011 RMK A01 T01300130  RH  100%=      5-min Rain = 0
KCA1 230620Z 36003KT 13/13 A3011 RMK A01 T01300130  RH  100%=      5-min Rain = 0.01
KCA1 230621Z 36004KT 13/13 A3011 RMK A01 T01300130  RH  100%=      5-min Rain = 0
KCA1 230622Z 36003KT 13/13 A3011 RMK A01 T01300130  RH  100%=      5-min Rain = 0
KCA1 230623Z 00004KT 13/13 A3011 RMK A01 T01300130  RH  100%=      5-min Rain = 0
KCA1 230624Z 00003KT 13/13 A3011 RMK A01 T01300130  RH  100%=      5-min Rain = 0.01
KCA1 230625Z 00004KT 13/13 A3011 RMK A01 T01300130  RH  100%=      5-min Rain = 0
KCA1 230626Z 01005KT 13/13 A301 RMK A01 T01310131  RH  100%=      5-min Rain = 0
KCA1 230627Z 01005KT 13/13 A301 RMK A01 T01300130  RH  100%=      5-min Rain = 0
KCA1 230628Z 01005KT 13/13 A301 RMK A01 T01300130  RH  100%=      5-min Rain = 0.01
KCA1 230629Z 02007KT 13/13 A301 RMK A01 T01300130  RH  100%=      5-min Rain = 0
KCA1 230630Z 02007KT 13/13 A301 RMK A01 T01300130  RH  100%=      5-min Rain = 0.01
KCA1 230631Z 03007KT 13/13 A301 RMK A01 T01300130  RH  100%=      5-min Rain = 0
KCA1 230632Z 03008KT 13/13 A301 RMK A01 T01300130  RH  100%=      5-min Rain = 0
KCA1 230633Z 03008KT 13/13 A301 RMK A01 T01300129  RH  099%=      5-min Rain = 0.01
KCA1 230634Z 03008KT 13/13 A3009 RMK A01 T01300129  RH  099%=      5-min Rain = 0
KCA1 230635Z 03009KT 13/13 A3009 RMK A01 T01300129  RH  099%=      5-min Rain = 0
KCA1 230636Z 04008KT 13/13 A3009 RMK A01 T01300129  RH  099%=      5-min Rain = 0.01
KCA1 230637Z 04008KT 13/13 A3009 RMK A01 T01300129  RH  099%=      5-min Rain = 0
KCA1 230638Z 03009KT 13/13 A3009 RMK A01 T01300129  RH  099%=      5-min Rain = 0
KCA1 230639Z 03008KT 13/13 A3009 RMK A01 T01290129  RH  099%=      5-min Rain = 0
KCA1 230640Z 03007KT 13/13 A301 RMK A01 T01290128  RH  099%=      5-min Rain = 0
KCA1 230641Z 03008KT 13/13 A301 RMK A01 T01290129  RH  099%=      5-min Rain = 0.01
KCA1 230642Z 03007KT 13/13 A301 RMK A01 T01290128  RH  099%=      5-min Rain = 0
KCA1 230643Z 03007KT 13/13 A301 RMK A01 T01290129  RH  100%=      5-min Rain = 0
KCA1 230644Z 03008KT 13/13 A301 RMK A01 T01290129  RH  100%=      5-min Rain = 0.01
KCA1 230645Z 03007KT 13/13 A301 RMK A01 T01290129  RH  100%=      5-min Rain = 0
KCA1 230646Z 03008KT 13/13 A3009 RMK A01 T01290129  RH  100%=      5-min Rain = 0
KCA1 230647Z 04009KT 13/13 A3009 RMK A01 T01290129  RH  100%=      5-min Rain = 0
KCA1 230648Z 04008KT 13/13 A3009 RMK A01 T01290129  RH  100%=      5-min Rain = 0
KCA1 230649Z 04009KT 13/13 A3009 RMK A01 T01290129  RH  100%=      5-min Rain = 0.01
KCA1 230650Z 04008KT 13/13 A3009 RMK A01 T01290129  RH  100%=      5-min Rain = 0
KCA1 230651Z 04009KT 13/13 A3009 RMK A01 T01290129  RH  100%=      5-min Rain = 0
KCA1 230652Z 04009KT 13/13 A3009 RMK A01 T01290129  RH  100%=      5-min Rain = 0
KCA1 230653Z 03007KT 13/13 A3009 RMK A01 T01290129  RH  100%=      5-min Rain = 0
KCA1 230654Z 03008KT 13/13 A3009 RMK A01 T01290129  RH  100%=      5-min Rain = 0
KCA1 230655Z 03007KT 13/13 A301 RMK A01 T01290129  RH  100%=      5-min Rain = 0
KCA1 230656Z 04006KT 13/13 A301 RMK A01 T01290129  RH  100%=      5-min Rain = 0
KCA1 230657Z 03006KT 13/13 A3009 RMK A01 T01290129  RH  100%=      5-min Rain = 0
KCA1 230658Z 03006KT 13/13 A3009 RMK A01 T01290129  RH  100%=      5-min Rain = 0
KCA1 230659Z 03007KT 13/13 A3009 RMK A01 T01290129  RH  100%=      5-min Rain = 0
KCA1 230700Z 03008KT 13/13 A3009 RMK A01 T01290129  RH  100%=      5-min Rain = 0
KCA1 230701Z 04008KT 13/13 A3009 RMK A01 T01290129  RH  100%=      5-min Rain = 0
KCA1 230702Z 03008KT 13/13 A3009 RMK A01 T01290129  RH  100%=      5-min Rain = 0.01
KCA1 230703Z 04008KT 13/13 A3009 RMK A01 T01290129  RH  100%=      5-min Rain = 0
KCA1 230704Z 04008KT 13/13 A3009 RMK A01 T01290129  RH  100%=      5-min Rain = 0
KCA1 230705Z 04009KT 13/13 A3008 RMK A01 T01290129  RH  100%=      5-min Rain = 0
KCA1 230706Z 03008KT 13/13 A3008 RMK A01 T01290129  RH  100%=      5-min Rain = 0
KCA1 230707Z 03009KT 13/13 A3008 RMK A01 T01290129  RH  100%=      5-min Rain = 0
KCA1 230708Z 03009KT 13/13 A3008 RMK A01 T01290129  RH  100%=      5-min Rain = 0
KCA1 230709Z 03007KT 13/13 A3008 RMK A01 T01290129  RH  100%=      5-min Rain = 0
KCA1 230710Z 03008KT 13/13 A3008 RMK A01 T01290129  RH  100%=      5-min Rain = 0
KCA1 230711Z 02007KT 13/13 A3008 RMK A01 T01280129  RH  100%=      5-min Rain = 0
KCA1 230712Z 03007KT 13/13 A3008 RMK A01 T01280129  RH  100%=      5-min Rain = 0
KCA1 230713Z 03006KT 13/13 A3008 RMK A01 T01280128  RH  100%=      5-min Rain = 0
KCA1 230714Z 03007KT 13/13 A3008 RMK A01 T01290129  RH  100%=      5-min Rain = 0
KCA1 230715Z 03007KT 13/13 A3008 RMK A01 T01280128  RH  100%=      5-min Rain = 0
KCA1 230716Z 03007KT 13/13 A3008 RMK A01 T01280129  RH  100%=      5-min Rain = 0
KCA1 230717Z 03008KT 13/13 A3008 RMK A01 T01280128  RH  100%=      5-min Rain = 0
KCA1 230718Z 03007KT 13/13 A3008 RMK A01 T01290129  RH  100%=      5-min Rain = 0
KCA1 230719Z 03007KT 13/13 A3008 RMK A01 T01280128  RH  100%=      5-min Rain = 0
KCA1 230720Z 03008KT 13/13 A3008 RMK A01 T01280128  RH  100%=      5-min Rain = 0
KCA1 230721Z 03007KT 13/13 A3008 RMK A01 T01290129  RH  100%=      5-min Rain = 0
KCA1 230722Z 03007KT 13/13 A3008 RMK A01 T01290129  RH  100%=      5-min Rain = 0
KCA1 230723Z 03008KT 13/13 A3008 RMK A01 T01280129  RH  100%=      5-min Rain = 0
KCA1 230724Z 03007KT 13/13 A3008 RMK A01 T01290129  RH  100%=      5-min Rain = 0
KCA1 230725Z 03007KT 13/13 A3008 RMK A01 T01280128  RH  100%=      5-min Rain = 0
KCA1 230726Z 02008KT 13/13 A3008 RMK A01 T01280128  RH  100%=      5-min Rain = 0
KCA1 230727Z 02007KT 13/13 A3008 RMK A01 T01290129  RH  100%=      5-min Rain = 0
KCA1 230728Z 02008KT 13/13 A3008 RMK A01 T01290129  RH  100%=      5-min Rain = 0
KCA1 230729Z 02007KT 13/13 A3008 RMK A01 T01290129  RH  100%=      5-min Rain = 0
KCA1 230730Z 02008KT 13/13 A3008 RMK A01 T01290129  RH  100%=      5-min Rain = 0
KCA1 230731Z 02009KT 13/13 A3008 RMK A01 T01290129  RH  100%=      5-min Rain = 0
KCA1 230732Z 02009KT 13/13 A3008 RMK A01 T01290129  RH  100%=      5-min Rain = 0
KCA1 230733Z 02008KT 13/13 A3008 RMK A01 T01290129  RH  100%=      5-min Rain = 0
KCA1 230734Z 02008KT 13/13 A3008 RMK A01 T01290129  RH  100%=      5-min Rain = 0
KCA1 230735Z 02008KT 13/13 A3008 RMK A01 T01290129  RH  100%=      5-min Rain = 0
KCA1 230736Z 02008KT 13/13 A3008 RMK A01 T01290129  RH  100%=      5-min Rain = 0
KCA1 230737Z 02008KT 13/13 A3008 RMK A01 T01290129  RH  100%=      5-min Rain = 0
KCA1 230738Z 02007KT 13/13 A3007 RMK A01 T01290129  RH  100%=      5-min Rain = 0
KCA1 230739Z 02008KT 13/13 A3007 RMK A01 T01300130  RH  100%=      5-min Rain = 0
KCA1 230740Z 02010KT 13/13 A3007 RMK A01 T01300130  RH  100%=      5-min Rain = 0
KCA1 230741Z 02009KT 13/13 A3007 RMK A01 T01300130  RH  100%=      5-min Rain = 0
KCA1 230742Z 02011KT 13/13 A3007 RMK A01 T01300130  RH  100%=      5-min Rain = 0
KCA1 230743Z 02010KT 13/13 A3007 RMK A01 T01300130  RH  100%=      5-min Rain = 0
KCA1 230744Z 02009KT 13/13 A3007 RMK A01 T01300130  RH  100%=      5-min Rain = 0
KCA1 230745Z 02009KT 13/13 A3007 RMK A01 T01300130  RH  100%=      5-min Rain = 0
KCA1 230746Z 03009KT 13/13 A3007 RMK A01 T01300130  RH  100%=      5-min Rain = 0
KCA1 230747Z 02011KT 13/13 A3007 RMK A01 T01300130  RH  100%=      5-min Rain = 0
KCA1 230748Z 02010KT 13/13 A3007 RMK A01 T01300130  RH  100%=      5-min Rain = 0
KCA1 230749Z 02011KT 13/13 A3007 RMK A01 T01300130  RH  100%=      5-min Rain = 0
KCA1 230750Z 03012KT 13/13 A3007 RMK A01 T01300130  RH  100%=      5-min Rain = 0
KCA1 230751Z 02012KT 13/13 A3006 RMK A01 T01300130  RH  100%=      5-min Rain = 0
KCA1 230752Z 03011KT 13/13 A3006 RMK A01 T01300130  RH  100%=      5-min Rain = 0
KCA1 230753Z 03012G17KT 13/13 A3006 RMK A01 T01300129  RH  100%=      5-min Rain = 0
KCA1 230754Z 03015KT 13/13 A3006 RMK A01 T01300129  RH  100%=      5-min Rain = 0
KCA1 230755Z 03014KT 13/13 A3006 RMK A01 T01290129  RH  099%=      5-min Rain = 0
KCA1 230756Z 03015KT 13/13 A3006 RMK A01 T01290128  RH  099%=      5-min Rain = 0
KCA1 230757Z 03012KT 13/13 A3006 RMK A01 T01290128  RH  099%=      5-min Rain = 0
KCA1 230758Z 03013KT 13/13 A3006 RMK A01 T01290127  RH  099%=      5-min Rain = 0
KCA1 230759Z 02013KT 13/13 A3006 RMK A01 T01290128  RH  099%=      5-min Rain = 0
KCA1 230800Z 03013KT 13/13 A3006 RMK A01 T01290128  RH  099%=      5-min Rain = 0
KCA1 230801Z 03013KT 13/13 A3005 RMK A01 T01300127  RH  099%=      5-min Rain = 0
KCA1 230802Z 03014KT 13/13 A3005 RMK A01 T01290127  RH  098%=      5-min Rain = 0
KCA1 230803Z 03014KT 13/13 A3005 RMK A01 T01290126  RH  098%=      5-min Rain = 0
KCA1 230804Z 03014KT 13/13 A3005 RMK A01 T01290126  RH  098%=      5-min Rain = 0
KCA1 230805Z 03018KT 13/13 A3005 RMK A01 T01290125  RH  098%=      5-min Rain = 0
KCA1 230806Z 03015KT 13/13 A3005 RMK A01 T01290125  RH  098%=      5-min Rain = 0
KCA1 230807Z 03016KT 13/12 A3005 RMK A01 T01280124  RH  097%=      5-min Rain = 0
KCA1 230808Z 03015KT 13/12 A3005 RMK A01 T01280124  RH  097%=      5-min Rain = 0
KCA1 230809Z 03015KT 13/13 A3004 RMK A01 T01290125  RH  097%=      5-min Rain = 0
KCA1 230810Z 03015KT 13/12 A3004 RMK A01 T01280124  RH  097%=      5-min Rain = 0
KCA1 230811Z 03015KT 13/12 A3004 RMK A01 T01280123  RH  097%=      5-min Rain = 0
KCA1 230812Z 03018KT 13/12 A3004 RMK A01 T01280123  RH  097%=      5-min Rain = 0
KCA1 230813Z 03016KT 13/12 A3004 RMK A01 T01270122  RH  097%=      5-min Rain = 0
KCA1 230814Z 03017KT 13/12 A3004 RMK A01 T01270122  RH  097%=      5-min Rain = 0
KCA1 230815Z 03015KT 13/12 A3004 RMK A01 T01270121  RH  096%=      5-min Rain = 0
KCA1 230816Z 03014KT 13/12 A3004 RMK A01 T01270122  RH  096%=      5-min Rain = 0
KCA1 230817Z 03016KT 13/12 A3004 RMK A01 T01270121  RH  097%=      5-min Rain = 0
KCA1 230818Z 03016G21KT 13/12 A3004 RMK A01 T01270121  RH  096%=      5-min Rain = 0
KCA1 230819Z 03017KT 13/12 A3004 RMK A01 T01270121  RH  096%=      5-min Rain = 0
KCA1 230820Z 03018KT 13/12 A3004 RMK A01 T01270121  RH  096%=      5-min Rain = 0
KCA1 230821Z 03016KT 13/12 A3004 RMK A01 T01270120  RH  096%=      5-min Rain = 0
KCA1 230822Z 03016KT 13/12 A3004 RMK A01 T01260120  RH  096%=      5-min Rain = 0
KCA1 230823Z 03017KT 13/12 A3004 RMK A01 T01260121  RH  096%=      5-min Rain = 0
KCA1 230824Z 03017KT 13/12 A3004 RMK A01 T01260120  RH  096%=      5-min Rain = 0
KCA1 230825Z 03016KT 13/12 A3003 RMK A01 T01260120  RH  096%=      5-min Rain = 0
KCA1 230826Z 03015KT 13/12 A3003 RMK A01 T01250120  RH  096%=      5-min Rain = 0
KCA1 230827Z 03018KT 13/12 A3003 RMK A01 T01250120  RH  097%=      5-min Rain = 0
KCA1 230828Z 03016KT 13/12 A3003 RMK A01 T01250119  RH  097%=      5-min Rain = 0
KCA1 230829Z 03017KT 13/12 A3003 RMK A01 T01250120  RH  097%=      5-min Rain = 0
KCA1 230830Z 03015KT 13/12 A3003 RMK A01 T01250120  RH  097%=      5-min Rain = 0
KCA1 230831Z 03015KT 12/12 A3003 RMK A01 T01240119  RH  097%=      5-min Rain = 0
KCA1 230832Z 03016KT 12/12 A3003 RMK A01 T01240120  RH  097%=      5-min Rain = 0
KCA1 230833Z 03014KT 12/12 A3003 RMK A01 T01240120  RH  097%=      5-min Rain = 0
KCA1 230834Z 03017KT 12/12 A3003 RMK A01 T01240120  RH  097%=      5-min Rain = 0
KCA1 230835Z 03016KT 12/12 A3003 RMK A01 T01240120  RH  097%=      5-min Rain = 0
KCA1 230836Z 03014G20KT 12/12 A3003 RMK A01 T01240120  RH  097%=      5-min Rain = 0
KCA1 230837Z 03016KT 12/12 A3003 RMK A01 T01240120  RH  097%=      5-min Rain = 0
KCA1 230838Z 03015G22KT 12/12 A3003 RMK A01 T01240120  RH  098%=      5-min Rain = 0
KCA1 230839Z 03017KT 12/12 A3003 RMK A01 T01240120  RH  098%=      5-min Rain = 0
KCA1 230840Z 03019KT 12/12 A3003 RMK A01 T01240120  RH  097%=      5-min Rain = 0
KCA1 230841Z 03017G22KT 12/12 A3003 RMK A01 T01240120  RH  097%=      5-min Rain = 0
KCA1 230842Z 03018KT 12/12 A3003 RMK A01 T01240119  RH  097%=      5-min Rain = 0
KCA1 230843Z 03018KT 12/12 A3003 RMK A01 T01240119  RH  097%=      5-min Rain = 0
KCA1 230844Z 03015KT 12/12 A3003 RMK A01 T01240119  RH  097%=      5-min Rain = 0
KCA1 230845Z 03018KT 12/12 A3003 RMK A01 T01240119  RH  097%=      5-min Rain = 0
KCA1 230846Z 03017KT 12/12 A3003 RMK A01 T01230119  RH  097%=      5-min Rain = 0
KCA1 230847Z 03015KT 12/12 A3003 RMK A01 T01230119  RH  097%=      5-min Rain = 0
KCA1 230848Z 03018KT 12/12 A3003 RMK A01 T01230119  RH  097%=      5-min Rain = 0
KCA1 230849Z 03018KT 12/12 A3003 RMK A01 T01230118  RH  097%=      5-min Rain = 0
KCA1 230850Z 03019KT 12/12 A3003 RMK A01 T01230118  RH  097%=      5-min Rain = 0
KCA1 230851Z 03019KT 12/12 A3003 RMK A01 T01230117  RH  096%=      5-min Rain = 0
KCA1 230852Z 03017G22KT 12/12 A3003 RMK A01 T01230117  RH  096%=      5-min Rain = 0
KCA1 230853Z 03016KT 12/12 A3003 RMK A01 T01230117  RH  096%=      5-min Rain = 0
KCA1 230854Z 03017KT 12/12 A3003 RMK A01 T01220117  RH  096%=      5-min Rain = 0
KCA1 230855Z 03016KT 12/12 A3003 RMK A01 T01220116  RH  096%=      5-min Rain = 0
KCA1 230856Z 03018KT 12/12 A3003 RMK A01 T01220116  RH  096%=      5-min Rain = 0
KCA1 230857Z 03015G20KT 12/12 A3003 RMK A01 T01220116  RH  096%=      5-min Rain = 0
KCA1 230858Z 03015G20KT 12/12 A3003 RMK A01 T01210115  RH  096%=      5-min Rain = 0
KCA1 230859Z 03017KT 12/12 A3003 RMK A01 T01210115  RH  096%=      5-min Rain = 0
KCA1 230900Z 03015KT 12/12 A3003 RMK A01 T01210115  RH  096%=      5-min Rain = 0
KCA1 230901Z 03015KT 12/11 A3003 RMK A01 T01210114  RH  096%=      5-min Rain = 0
KCA1 230902Z 03013KT 12/11 A3003 RMK A01 T01210114  RH  096%=      5-min Rain = 0
KCA1 230903Z 03016KT 12/11 A3003 RMK A01 T01200113  RH  096%=      5-min Rain = 0
KCA1 230904Z 03015KT 12/11 A3003 RMK A01 T01200113  RH  095%=      5-min Rain = 0
KCA1 230905Z 03017KT 12/11 A3003 RMK A01 T01200112  RH  095%=      5-min Rain = 0
KCA1 230906Z 03015KT 12/11 A3003 RMK A01 T01200112  RH  095%=      5-min Rain = 0
KCA1 230907Z 03016KT 12/11 A3003 RMK A01 T01200112  RH  095%=      5-min Rain = 0
KCA1 230908Z 03017KT 12/11 A3003 RMK A01 T01200111  RH  094%=      5-min Rain = 0
KCA1 230909Z 03015G20KT 12/11 A3003 RMK A01 T01200111  RH  094%=      5-min Rain = 0
KCA1 230910Z 03014KT 12/11 A3003 RMK A01 T01200111  RH  094%=      5-min Rain = 0
KCA1 230911Z 03015KT 12/11 A3003 RMK A01 T01200111  RH  095%=      5-min Rain = 0
KCA1 230912Z 03015KT 12/11 A3003 RMK A01 T01200112  RH  095%=      5-min Rain = 0
KCA1 230913Z 03015KT 12/11 A3003 RMK A01 T01200112  RH  095%=      5-min Rain = 0
KCA1 230914Z 03016G21KT 12/11 A3003 RMK A01 T01200112  RH  095%=      5-min Rain = 0
KCA1 230915Z 04016G21KT 12/11 A3003 RMK A01 T01200112  RH  095%=      5-min Rain = 0
KCA1 230916Z 03014KT 12/11 A3004 RMK A01 T01200112  RH  095%=      5-min Rain = 0
KCA1 230917Z 03015KT 12/11 A3004 RMK A01 T01200112  RH  095%=      5-min Rain = 0
KCA1 230918Z 03016KT 12/11 A3004 RMK A01 T01200113  RH  095%=      5-min Rain = 0
KCA1 230919Z 03014G19KT 12/11 A3004 RMK A01 T01200113  RH  095%=      5-min Rain = 0
KCA1 230920Z 03014KT 12/11 A3004 RMK A01 T01200113  RH  095%=      5-min Rain = 0
KCA1 230921Z 03014G20KT 12/11 A3004 RMK A01 T01200113  RH  096%=      5-min Rain = 0
KCA1 230922Z 03015KT 12/11 A3004 RMK A01 T01200114  RH  096%=      5-min Rain = 0
KCA1 230923Z 03015KT 12/11 A3004 RMK A01 T01200114  RH  096%=      5-min Rain = 0
KCA1 230924Z 03015KT 12/11 A3004 RMK A01 T01200114  RH  096%=      5-min Rain = 0
KCA1 230925Z 03014KT 12/11 A3004 RMK A01 T01210114  RH  096%=      5-min Rain = 0
KCA1 230926Z 03017KT 12/11 A3004 RMK A01 T01210114  RH  096%=      5-min Rain = 0
KCA1 230927Z 03015KT 12/11 A3004 RMK A01 T01210114  RH  096%=      5-min Rain = 0
KCA1 230928Z 03015KT 12/11 A3004 RMK A01 T01210114  RH  095%=      5-min Rain = 0
KCA1 230929Z 03013KT 12/11 A3004 RMK A01 T01210114  RH  095%=      5-min Rain = 0
KCA1 230930Z 03016KT 12/11 A3004 RMK A01 T01210114  RH  096%=      5-min Rain = 0
KCA1 230931Z 03014KT 12/11 A3004 RMK A01 T01210114  RH  096%=      5-min Rain = 0
KCA1 230932Z 03014KT 12/11 A3004 RMK A01 T01210114  RH  096%=      5-min Rain = 0
KCA1 230933Z 03016KT 12/12 A3004 RMK A01 T01210115  RH  096%=      5-min Rain = 0
KCA1 230934Z 03013KT 12/12 A3004 RMK A01 T01210115  RH  096%=      5-min Rain = 0
KCA1 230935Z 03014KT 12/12 A3004 RMK A01 T01210115  RH  096%=      5-min Rain = 0
KCA1 230936Z 03014KT 12/12 A3004 RMK A01 T01210115  RH  096%=      5-min Rain = 0
KCA1 230937Z 03015KT 12/12 A3004 RMK A01 T01210115  RH  096%=      5-min Rain = 0
KCA1 230938Z 03015KT 12/12 A3004 RMK A01 T01210115  RH  096%=      5-min Rain = 0
KCA1 230939Z 02017KT 12/12 A3004 RMK A01 T01210115  RH  096%=      5-min Rain = 0
KCA1 230940Z 03013KT 12/12 A3004 RMK A01 T01220115  RH  096%=      5-min Rain = 0
KCA1 230941Z 03018KT 12/12 A3004 RMK A01 T01220115  RH  096%=      5-min Rain = 0
KCA1 230942Z 03018KT 12/12 A3004 RMK A01 T01220115  RH  096%=      5-min Rain = 0
KCA1 230943Z 03015KT 12/12 A3004 RMK A01 T01220115  RH  095%=      5-min Rain = 0
KCA1 230944Z 03016KT 12/12 A3004 RMK A01 T01220115  RH  096%=      5-min Rain = 0
KCA1 230945Z 03012KT 12/12 A3004 RMK A01 T01220115  RH  096%=      5-min Rain = 0
KCA1 230946Z 03013KT 12/12 A3004 RMK A01 T01220116  RH  096%=      5-min Rain = 0
KCA1 230947Z 03013KT 12/12 A3004 RMK A01 T01220116  RH  096%=      5-min Rain = 0
KCA1 230948Z 03016G21KT 12/12 A3004 RMK A01 T01210116  RH  096%=      5-min Rain = 0
KCA1 230949Z 04017KT 12/12 A3004 RMK A01 T01220116  RH  096%=      5-min Rain = 0
KCA1 230950Z 04015KT 12/12 A3004 RMK A01 T01220115  RH  096%=      5-min Rain = 0
KCA1 230951Z 03016KT 12/12 A3004 RMK A01 T01220115  RH  096%=      5-min Rain = 0
KCA1 230952Z 03016KT 12/12 A3004 RMK A01 T01220115  RH  096%=      5-min Rain = 0
KCA1 230953Z 03017KT 12/12 A3004 RMK A01 T01220115  RH  096%=      5-min Rain = 0
KCA1 230954Z 03015KT 12/12 A3004 RMK A01 T01220115  RH  096%=      5-min Rain = 0
KCA1 230955Z 04015KT 12/12 A3004 RMK A01 T01220115  RH  096%=      5-min Rain = 0
KCA1 230956Z 03016KT 12/12 A3004 RMK A01 T01220115  RH  096%=      5-min Rain = 0
KCA1 230957Z 03016KT 12/12 A3005 RMK A01 T01220115  RH  096%=      5-min Rain = 0
KCA1 230958Z 03017KT 12/12 A3005 RMK A01 T01220115  RH  096%=      5-min Rain = 0
KCA1 230959Z 04015KT 12/12 A3005 RMK A01 T01220115  RH  096%=      5-min Rain = 0
KCA1 231000Z 03015KT 12/12 A3004 RMK A01 T01220115  RH  096%=      5-min Rain = 0
KCA1 231001Z 04016KT 12/12 A3005 RMK A01 T01220115  RH  096%=      5-min Rain = 0
KCA1 231002Z 04020KT 12/12 A3005 RMK A01 T01220116  RH  096%=      5-min Rain = 0
KCA1 231003Z 04017KT 12/12 A3005 RMK A01 T01220115  RH  095%=      5-min Rain = 0
KCA1 231004Z 04017G22KT 12/12 A3005 RMK A01 T01220115  RH  095%=      5-min Rain = 0
KCA1 231005Z 04018KT 12/12 A3005 RMK A01 T01220115  RH  095%=      5-min Rain = 0
KCA1 231006Z 03021KT 12/11 A3005 RMK A01 T01210114  RH  095%=      5-min Rain = 0
KCA1 231007Z 04018KT 12/11 A3005 RMK A01 T01220114  RH  095%=      5-min Rain = 0
KCA1 231008Z 04017KT 12/11 A3005 RMK A01 T01220113  RH  095%=      5-min Rain = 0
KCA1 231009Z 04016KT 12/11 A3005 RMK A01 T01220113  RH  095%=      5-min Rain = 0
KCA1 231010Z 04018KT 12/11 A3005 RMK A01 T01220114  RH  095%=      5-min Rain = 0
KCA1 231011Z 03016G22KT 12/11 A3005 RMK A01 T01210113  RH  095%=      5-min Rain = 0
KCA1 231012Z 04020KT 12/11 A3005 RMK A01 T01210112  RH  095%=      5-min Rain = 0
KCA1 231013Z 04019KT 12/11 A3005 RMK A01 T01210111  RH  094%=      5-min Rain = 0
KCA1 231014Z 03016KT 12/11 A3005 RMK A01 T01210111  RH  094%=      5-min Rain = 0
KCA1 231015Z 04018KT 12/11 A3005 RMK A01 T01200110  RH  094%=      5-min Rain = 0
KCA1 231016Z 04020KT 12/11 A3005 RMK A01 T01200109  RH  093%=      5-min Rain = 0
KCA1 231017Z 04018KT 12/11 A3005 RMK A01 T01200108  RH  092%=      5-min Rain = 0
KCA1 231018Z 04018KT 12/11 A3005 RMK A01 T01200107  RH  092%=      5-min Rain = 0
KCA1 231019Z 04017KT 12/11 A3005 RMK A01 T01200107  RH  092%=      5-min Rain = 0
KCA1 231020Z 04017KT 12/11 A3005 RMK A01 T01190108  RH  093%=      5-min Rain = 0
KCA1 231021Z 04015KT 12/11 A3005 RMK A01 T01190108  RH  093%=      5-min Rain = 0
KCA1 231022Z 04016KT 12/11 A3004 RMK A01 T01190108  RH  093%=      5-min Rain = 0
KCA1 231023Z 04017KT 12/11 A3004 RMK A01 T01180107  RH  093%=      5-min Rain = 0
KCA1 231024Z 04015KT 12/11 A3004 RMK A01 T01180107  RH  093%=      5-min Rain = 0
KCA1 231025Z 05016KT 12/11 A3004 RMK A01 T01190107  RH  093%=      5-min Rain = 0
KCA1 231026Z 04015KT 12/11 A3004 RMK A01 T01180107  RH  093%=      5-min Rain = 0
KCA1 231027Z 04017KT 12/11 A3004 RMK A01 T01180107  RH  093%=      5-min Rain = 0
KCA1 231028Z 04017KT 12/11 A3004 RMK A01 T01170107  RH  093%=      5-min Rain = 0
KCA1 231029Z 04018KT 12/11 A3004 RMK A01 T01180106  RH  093%=      5-min Rain = 0
KCA1 231030Z 04015KT 12/11 A3004 RMK A01 T01170106  RH  093%=      5-min Rain = 0
KCA1 231031Z 04018KT 12/11 A3004 RMK A01 T01170107  RH  093%=      5-min Rain = 0
KCA1 231032Z 04019KT 12/11 A3004 RMK A01 T01170107  RH  093%=      5-min Rain = 0
KCA1 231033Z 04017KT 12/11 A3003 RMK A01 T01170106  RH  093%=      5-min Rain = 0
KCA1 231034Z 04018KT 12/11 A3003 RMK A01 T01170106  RH  093%=      5-min Rain = 0
KCA1 231035Z 04016KT 12/11 A3003 RMK A01 T01170106  RH  093%=      5-min Rain = 0
KCA1 231036Z 04016KT 12/11 A3003 RMK A01 T01170106  RH  093%=      5-min Rain = 0
KCA1 231037Z 04015G21KT 12/11 A3003 RMK A01 T01170106  RH  093%=      5-min Rain = 0
KCA1 231038Z 04017KT 12/11 A3003 RMK A01 T01160106  RH  093%=      5-min Rain = 0
KCA1 231039Z 04017KT 12/11 A3003 RMK A01 T01160106  RH  093%=      5-min Rain = 0
KCA1 231040Z 04014KT 12/11 A3003 RMK A01 T01160106  RH  093%=      5-min Rain = 0
KCA1 231041Z 04017KT 12/11 A3003 RMK A01 T01170107  RH  094%=      5-min Rain = 0
KCA1 231042Z 04015KT 12/11 A3003 RMK A01 T01170107  RH  094%=      5-min Rain = 0
KCA1 231043Z 04015KT 12/11 A3003 RMK A01 T01160107  RH  094%=      5-min Rain = 0
KCA1 231044Z 04017KT 12/11 A3003 RMK A01 T01160106  RH  094%=      5-min Rain = 0
KCA1 231045Z 04016KT 12/11 A3003 RMK A01 T01160106  RH  093%=      5-min Rain = 0
KCA1 231046Z 04015KT 12/11 A3003 RMK A01 T01160106  RH  093%=      5-min Rain = 0
KCA1 231047Z 04015KT 12/11 A3003 RMK A01 T01160106  RH  093%=      5-min Rain = 0
KCA1 231048Z 04016KT 12/11 A3003 RMK A01 T01160106  RH  094%=      5-min Rain = 0
KCA1 231049Z 04019KT 12/11 A3003 RMK A01 T01160107  RH  094%=      5-min Rain = 0
KCA1 231050Z 04017G22KT 12/11 A3003 RMK A01 T01160105  RH  093%=      5-min Rain = 0
KCA1 231051Z 04017KT 12/11 A3003 RMK A01 T01160105  RH  093%=      5-min Rain = 0
KCA1 231052Z 04017KT 12/11 A3003 RMK A01 T01160105  RH  093%=      5-min Rain = 0
KCA1 231053Z 03015KT 12/11 A3003 RMK A01 T01160105  RH  093%=      5-min Rain = 0
KCA1 231054Z 03016KT 12/11 A3003 RMK A01 T01160105  RH  093%=      5-min Rain = 0
KCA1 231055Z 04016KT 12/11 A3003 RMK A01 T01160106  RH  093%=      5-min Rain = 0
KCA1 231056Z 04014G19KT 12/11 A3003 RMK A01 T01160106  RH  093%=      5-min Rain = 0
KCA1 231057Z 03016KT 12/11 A3003 RMK A01 T01160106  RH  093%=      5-min Rain = 0
KCA1 231058Z 04016KT 12/11 A3003 RMK A01 T01160106  RH  093%=      5-min Rain = 0
KCA1 231059Z 04016KT 12/11 A3003 RMK A01 T01160106  RH  093%=      5-min Rain = 0
KCA1 231100Z 04014KT 12/11 A3003 RMK A01 T01160106  RH  093%=      5-min Rain = 0
KCA1 231101Z 04014KT 12/11 A3003 RMK A01 T01160106  RH  094%=      5-min Rain = 0
KCA1 231102Z 04013KT 12/11 A3003 RMK A01 T01160106  RH  094%=      5-min Rain = 0
KCA1 231103Z 04014KT 12/11 A3003 RMK A01 T01160106  RH  094%=      5-min Rain = 0
KCA1 231104Z 04015KT 12/11 A3003 RMK A01 T01170107  RH  094%=      5-min Rain = 0
KCA1 231105Z 04014KT 12/11 A3003 RMK A01 T01160107  RH  094%=      5-min Rain = 0
KCA1 231106Z 04015KT 12/11 A3003 RMK A01 T01160107  RH  094%=      5-min Rain = 0
KCA1 231107Z 04015KT 12/11 A3003 RMK A01 T01160106  RH  094%=      5-min Rain = 0
KCA1 231108Z 04015KT 12/11 A3003 RMK A01 T01160106  RH  094%=      5-min Rain = 0
KCA1 231109Z 04016KT 12/11 A3003 RMK A01 T01160106  RH  094%=      5-min Rain = 0
KCA1 231110Z 04016KT 12/11 A3003 RMK A01 T01160106  RH  094%=      5-min Rain = 0
KCA1 231111Z 04016KT 12/11 A3003 RMK A01 T01160107  RH  094%=      5-min Rain = 0
KCA1 231112Z 03014KT 12/11 A3003 RMK A01 T01160107  RH  094%=      5-min Rain = 0
KCA1 231113Z 03016KT 12/11 A3003 RMK A01 T01160107  RH  094%=      5-min Rain = 0
KCA1 231114Z 03016KT 12/11 A3003 RMK A01 T01160107  RH  094%=      5-min Rain = 0
KCA1 231115Z 03016KT 12/11 A3003 RMK A01 T01160107  RH  094%=      5-min Rain = 0
KCA1 231116Z 03016KT 12/11 A3003 RMK A01 T01160106  RH  094%=      5-min Rain = 0
KCA1 231117Z 03016KT 12/11 A3003 RMK A01 T01160106  RH  093%=      5-min Rain = 0
KCA1 231118Z 04015KT 12/11 A3003 RMK A01 T01160106  RH  093%=      5-min Rain = 0
KCA1 231119Z 03015KT 12/11 A3003 RMK A01 T01160106  RH  094%=      5-min Rain = 0
KCA1 231120Z 04015KT 12/11 A3003 RMK A01 T01160106  RH  094%=      5-min Rain = 0
KCA1 231121Z 03014KT 12/11 A3003 RMK A01 T01160106  RH  094%=      5-min Rain = 0
KCA1 231122Z 03015KT 12/11 A3003 RMK A01 T01160106  RH  094%=      5-min Rain = 0
KCA1 231123Z 03013KT 12/11 A3003 RMK A01 T01160107  RH  094%=      5-min Rain = 0
KCA1 231124Z 03015KT 12/11 A3003 RMK A01 T01160107  RH  094%=      5-min Rain = 0
KCA1 231125Z 03015KT 12/11 A3003 RMK A01 T01160107  RH  094%=      5-min Rain = 0
KCA1 231126Z 03018KT 12/11 A3003 RMK A01 T01160106  RH  094%=      5-min Rain = 0
KCA1 231127Z 03015KT 12/11 A3003 RMK A01 T01160106  RH  093%=      5-min Rain = 0
KCA1 231128Z 03013KT 12/11 A3003 RMK A01 T01160106  RH  093%=      5-min Rain = 0
KCA1 231129Z 03016KT 12/11 A3003 RMK A01 T01160106  RH  094%=      5-min Rain = 0
KCA1 231130Z 03017KT 12/11 A3003 RMK A01 T01160106  RH  094%=      5-min Rain = 0
KCA1 231131Z 03014G19KT 12/11 A3003 RMK A01 T01160106  RH  093%=      5-min Rain = 0
KCA1 231132Z 03014KT 12/11 A3003 RMK A01 T01160106  RH  093%=      5-min Rain = 0
KCA1 231133Z 03012KT 12/11 A3003 RMK A01 T01160106  RH  094%=      5-min Rain = 0
KCA1 231134Z 03011KT 12/11 A3004 RMK A01 T01160106  RH  094%=      5-min Rain = 0
KCA1 231135Z 03014KT 12/11 A3004 RMK A01 T01160106  RH  094%=      5-min Rain = 0
KCA1 231136Z 03015KT 12/11 A3004 RMK A01 T01160106  RH  094%=      5-min Rain = 0
KCA1 231137Z 03013KT 12/11 A3004 RMK A01 T01160106  RH  094%=      5-min Rain = 0
KCA1 231138Z 02015KT 12/11 A3004 RMK A01 T01160106  RH  094%=      5-min Rain = 0
KCA1 231139Z 03013KT 12/11 A3004 RMK A01 T01160106  RH  094%=      5-min Rain = 0
KCA1 231140Z 03012KT 12/11 A3004 RMK A01 T01160106  RH  094%=      5-min Rain = 0
KCA1 231141Z 02013KT 12/11 A3004 RMK A01 T01160107  RH  094%=      5-min Rain = 0
KCA1 231142Z 03014KT 12/11 A3004 RMK A01 T01160107  RH  094%=      5-min Rain = 0
KCA1 231143Z 03013KT 12/11 A3004 RMK A01 T01160107  RH  094%=      5-min Rain = 0
KCA1 231144Z 02014KT 12/11 A3004 RMK A01 T01160107  RH  094%=      5-min Rain = 0
KCA1 231145Z 03016G21KT 12/11 A3004 RMK A01 T01160106  RH  094%=      5-min Rain = 0
KCA1 231146Z 02016G21KT 12/11 A3004 RMK A01 T01160105  RH  093%=      5-min Rain = 0
KCA1 231147Z 03016KT 12/10 A3004 RMK A01 T01160104  RH  093%=      5-min Rain = 0
KCA1 231148Z 03013KT 12/11 A3004 RMK A01 T01160105  RH  093%=      5-min Rain = 0
KCA1 231149Z 03013KT 12/11 A3004 RMK A01 T01160105  RH  093%=      5-min Rain = 0
KCA1 231150Z 03015G20KT 12/11 A3005 RMK A01 T01160106  RH  093%=      5-min Rain = 0
KCA1 231151Z 02014KT 12/11 A3005 RMK A01 T01160105  RH  093%=      5-min Rain = 0
KCA1 231152Z 02015KT 12/11 A3005 RMK A01 T01160105  RH  093%=      5-min Rain = 0
KCA1 231153Z 03013KT 12/11 A3005 RMK A01 T01160105  RH  093%=      5-min Rain = 0
KCA1 231154Z 03015G20KT 12/11 A3005 RMK A01 T01160105  RH  093%=      5-min Rain = 0
KCA1 231155Z 03018KT 12/10 A3005 RMK A01 T01160104  RH  092%=      5-min Rain = 0
KCA1 231156Z 03015KT 12/10 A3005 RMK A01 T01160103  RH  092%=      5-min Rain = 0
KCA1 231157Z 03017KT 12/10 A3005 RMK A01 T01160103  RH  092%=      5-min Rain = 0
KCA1 231158Z 03016G21KT 12/10 A3005 RMK A01 T01160102  RH  092%=      5-min Rain = 0
KCA1 231159Z 03013KT 12/10 A3005 RMK A01 T01160103  RH  092%=      5-min Rain = 0
KCA1 231200Z 03014G19KT 12/10 A3005 RMK A01 T01150103  RH  092%=      5-min Rain = 0
KCA1 231201Z 03015KT 12/10 A3005 RMK A01 T01150103  RH  092%=      5-min Rain = 0
KCA1 231202Z 03015KT 12/10 A3005 RMK A01 T01150103  RH  092%=      5-min Rain = 0
KCA1 231203Z 03014G19KT 12/10 A3005 RMK A01 T01150102  RH  092%=      5-min Rain = 0
KCA1 231204Z 03014KT 12/10 A3005 RMK A01 T01150102  RH  092%=      5-min Rain = 0
KCA1 231205Z 03014KT 12/10 A3006 RMK A01 T01150102  RH  092%=      5-min Rain = 0
KCA1 231206Z 02013G19KT 12/10 A3006 RMK A01 T01150102  RH  092%=      5-min Rain = 0
KCA1 231207Z 03013KT 12/10 A3006 RMK A01 T01150102  RH  092%=      5-min Rain = 0
KCA1 231208Z 02013KT 12/10 A3006 RMK A01 T01150101  RH  091%=      5-min Rain = 0
KCA1 231209Z 03014G20KT 12/10 A3006 RMK A01 T01150101  RH  091%=      5-min Rain = 0
KCA1 231210Z 02015G20KT 12/10 A3006 RMK A01 T01150100  RH  091%=      5-min Rain = 0
KCA1 231211Z 02015KT 12/10 A3006 RMK A01 T01150100  RH  090%=      5-min Rain = 0
KCA1 231212Z 03015KT 12/10 A3006 RMK A01 T01150099  RH  090%=      5-min Rain = 0
KCA1 231213Z 03016KT 12/10 A3006 RMK A01 T01150099  RH  090%=      5-min Rain = 0
KCA1 231214Z 02015KT 12/10 A3006 RMK A01 T01150098  RH  090%=      5-min Rain = 0
KCA1 231215Z 03016KT 12/10 A3006 RMK A01 T01150099  RH  090%=      5-min Rain = 0
KCA1 231216Z 02016KT 11/10 A3006 RMK A01 T01140098  RH  090%=      5-min Rain = 0
KCA1 231217Z 02013KT 11/10 A3006 RMK A01 T01140099  RH  090%=      5-min Rain = 0
KCA1 231218Z 02014G19KT 11/10 A3006 RMK A01 T01140099  RH  091%=      5-min Rain = 0
KCA1 231219Z 03016G22KT 11/10 A3006 RMK A01 T01140098  RH  090%=      5-min Rain = 0
KCA1 231220Z 03017KT 11/10 A3006 RMK A01 T01140098  RH  090%=      5-min Rain = 0
KCA1 231221Z 02017KT 11/10 A3006 RMK A01 T01140097  RH  090%=      5-min Rain = 0
KCA1 231222Z 03014KT 11/10 A3006 RMK A01 T01140098  RH  090%=      5-min Rain = 0
KCA1 231223Z 02016KT 11/10 A3006 RMK A01 T01140098  RH  090%=      5-min Rain = 0
KCA1 231224Z 03015KT 11/10 A3006 RMK A01 T01130098  RH  090%=      5-min Rain = 0
KCA1 231225Z 03013KT 11/10 A3006 RMK A01 T01130098  RH  091%=      5-min Rain = 0
KCA1 231226Z 03015KT 11/10 A3006 RMK A01 T01130098  RH  091%=      5-min Rain = 0
KCA1 231227Z 02015KT 11/10 A3006 RMK A01 T01130098  RH  090%=      5-min Rain = 0
KCA1 231228Z 02013KT 11/10 A3006 RMK A01 T01130098  RH  091%=      5-min Rain = 0
KCA1 231229Z 02013KT 11/10 A3006 RMK A01 T01130099  RH  091%=      5-min Rain = 0
KCA1 231230Z 02015KT 11/10 A3006 RMK A01 T01130098  RH  091%=      5-min Rain = 0
KCA1 231231Z 02015KT 11/10 A3006 RMK A01 T01120097  RH  090%=      5-min Rain = 0
KCA1 231232Z 02013KT 11/10 A3006 RMK A01 T01130097  RH  090%=      5-min Rain = 0
KCA1 231233Z 02012KT 11/10 A3006 RMK A01 T01130098  RH  090%=      5-min Rain = 0
KCA1 231234Z 02016KT 11/10 A3006 RMK A01 T01120097  RH  091%=      5-min Rain = 0
KCA1 231235Z 03018KT 11/10 A3007 RMK A01 T01120096  RH  090%=      5-min Rain = 0
KCA1 231236Z 02016KT 11/10 A3007 RMK A01 T01120095  RH  089%=      5-min Rain = 0
KCA1 231237Z 02015KT 11/10 A3007 RMK A01 T01120095  RH  089%=      5-min Rain = 0
KCA1 231238Z 02012KT 11/10 A3007 RMK A01 T01120096  RH  090%=      5-min Rain = 0
KCA1 231239Z 02012KT 11/10 A3007 RMK A01 T01130097  RH  090%=      5-min Rain = 0
KCA1 231240Z 02012KT 11/10 A3007 RMK A01 T01120096  RH  090%=      5-min Rain = 0
KCA1 231241Z 02014KT 11/10 A3007 RMK A01 T01120096  RH  090%=      5-min Rain = 0
KCA1 231242Z 02015KT 11/10 A3007 RMK A01 T01120096  RH  090%=      5-min Rain = 0
KCA1 231243Z 02014KT 11/10 A3007 RMK A01 T01120095  RH  089%=      5-min Rain = 0
KCA1 231244Z 02014KT 11/10 A3007 RMK A01 T01120095  RH  089%=      5-min Rain = 0
KCA1 231245Z 02014KT 11/10 A3007 RMK A01 T01120095  RH  089%=      5-min Rain = 0
KCA1 231246Z 02013KT 11/10 A3007 RMK A01 T01110095  RH  090%=      5-min Rain = 0
KCA1 231247Z 02011KT 11/10 A3007 RMK A01 T01110096  RH  090%=      5-min Rain = 0
KCA1 231248Z 02011KT 11/10 A3007 RMK A01 T01120096  RH  090%=      5-min Rain = 0
KCA1 231249Z 02013KT 11/10 A3007 RMK A01 T01110097  RH  091%=      5-min Rain = 0
KCA1 231250Z 02011KT 11/10 A3007 RMK A01 T01110097  RH  091%=      5-min Rain = 0
KCA1 231251Z 01012KT 11/10 A3007 RMK A01 T01110097  RH  091%=      5-min Rain = 0
KCA1 231252Z 02011KT 11/10 A3008 RMK A01 T01110097  RH  091%=      5-min Rain = 0
KCA1 231253Z 01012KT 11/10 A3008 RMK A01 T01110097  RH  091%=      5-min Rain = 0
KCA1 231254Z 01011KT 11/10 A3008 RMK A01 T01110096  RH  091%=      5-min Rain = 0
KCA1 231255Z 01015KT 11/10 A3008 RMK A01 T01110096  RH  090%=      5-min Rain = 0
KCA1 231256Z 02015KT 11/10 A3008 RMK A01 T01110095  RH  090%=      5-min Rain = 0
KCA1 231257Z 02014KT 11/10 A3008 RMK A01 T01110095  RH  090%=      5-min Rain = 0
KCA1 231258Z 02012KT 11/10 A3008 RMK A01 T01110095  RH  090%=      5-min Rain = 0
KCA1 231259Z 02011KT 11/10 A3008 RMK A01 T01110096  RH  090%=      5-min Rain = 0
KCA1 231300Z 02012KT 11/10 A3008 RMK A01 T01110096  RH  090%=      5-min Rain = 0
KCA1 231301Z 02013KT 11/10 A3008 RMK A01 T01110095  RH  090%=      5-min Rain = 0
KCA1 231302Z 02012KT 11/10 A3008 RMK A01 T01110095  RH  090%=      5-min Rain = 0
KCA1 231303Z 01010KT 11/09 A3008 RMK A01 T01110094  RH  089%=      5-min Rain = 0
KCA1 231304Z 03010KT 11/10 A3008 RMK A01 T01110095  RH  090%=      5-min Rain = 0
KCA1 231305Z 02013KT 11/09 A3008 RMK A01 T01110094  RH  089%=      5-min Rain = 0
KCA1 231306Z 02011KT 11/09 A3008 RMK A01 T01110093  RH  089%=      5-min Rain = 0
KCA1 231307Z 03009KT 11/09 A3008 RMK A01 T01110094  RH  089%=      5-min Rain = 0
KCA1 231308Z 03014KT 11/09 A3009 RMK A01 T01110094  RH  089%=      5-min Rain = 0
KCA1 231309Z 03013G18KT 11/09 A3009 RMK A01 T01100093  RH  089%=      5-min Rain = 0
KCA1 231310Z 03012KT 11/09 A3009 RMK A01 T01110093  RH  089%=      5-min Rain = 0
KCA1 231311Z 03011KT 11/09 A3009 RMK A01 T01100093  RH  089%=      5-min Rain = 0
KCA1 231312Z 03010G15KT 11/09 A3009 RMK A01 T01110094  RH  089%=      5-min Rain = 0
KCA1 231313Z 03014KT 11/09 A3009 RMK A01 T01100094  RH  090%=      5-min Rain = 0
KCA1 231314Z 03011KT 11/09 A3009 RMK A01 T01100093  RH  089%=      5-min Rain = 0
KCA1 231315Z 03010KT 11/09 A3009 RMK A01 T01100093  RH  089%=      5-min Rain = 0
KCA1 231316Z 03013KT 11/09 A3009 RMK A01 T01100094  RH  090%=      5-min Rain = 0
KCA1 231317Z 03013KT 11/09 A3009 RMK A01 T01100094  RH  090%=      5-min Rain = 0
KCA1 231318Z 03012KT 11/09 A3009 RMK A01 T01100094  RH  090%=      5-min Rain = 0
KCA1 231319Z 02009KT 11/10 A3009 RMK A01 T01100095  RH  090%=      5-min Rain = 0
KCA1 231320Z 02010KT 11/10 A3009 RMK A01 T01100096  RH  091%=      5-min Rain = 0
KCA1 231321Z 02011KT 11/10 A3009 RMK A01 T01100096  RH  091%=      5-min Rain = 0
KCA1 231322Z 02009KT 11/10 A3009 RMK A01 T01100096  RH  091%=      5-min Rain = 0
KCA1 231323Z 03009KT 11/10 A3009 RMK A01 T01100097  RH  091%=      5-min Rain = 0
KCA1 231324Z 03010KT 11/10 A3009 RMK A01 T01100097  RH  091%=      5-min Rain = 0
KCA1 231325Z 02009KT 11/10 A301 RMK A01 T01100097  RH  091%=      5-min Rain = 0
KCA1 231326Z 02009KT 11/10 A301 RMK A01 T01100097  RH  092%=      5-min Rain = 0
KCA1 231327Z 03010KT 11/10 A301 RMK A01 T01100097  RH  092%=      5-min Rain = 0
KCA1 231328Z 02008KT 11/10 A301 RMK A01 T01100097  RH  091%=      5-min Rain = 0
KCA1 231329Z 02009KT 11/10 A301 RMK A01 T01100097  RH  092%=      5-min Rain = 0
KCA1 231330Z 02009KT 11/10 A301 RMK A01 T01110098  RH  092%=      5-min Rain = 0
KCA1 231331Z 03007KT 11/10 A301 RMK A01 T01110097  RH  091%=      5-min Rain = 0
KCA1 231332Z 03008KT 11/10 A301 RMK A01 T01110098  RH  092%=      5-min Rain = 0
KCA1 231333Z 03006KT 11/10 A301 RMK A01 T01110098  RH  092%=      5-min Rain = 0
KCA1 231334Z 04007KT 11/10 A301 RMK A01 T01110098  RH  092%=      5-min Rain = 0
KCA1 231335Z 03007KT 11/10 A301 RMK A01 T01110098  RH  092%=      5-min Rain = 0
KCA1 231336Z 02006KT 11/10 A301 RMK A01 T01120099  RH  092%=      5-min Rain = 0
KCA1 231337Z 03007KT 11/10 A301 RMK A01 T01110099  RH  092%=      5-min Rain = 0
KCA1 231338Z 03007KT 11/10 A301 RMK A01 T01120098  RH  092%=      5-min Rain = 0
KCA1 231339Z 02008KT 11/10 A301 RMK A01 T01120098  RH  091%=      5-min Rain = 0
KCA1 231340Z 03008KT 11/10 A301 RMK A01 T01120097  RH  091%=      5-min Rain = 0
KCA1 231341Z 03006KT 11/10 A301 RMK A01 T01120097  RH  091%=      5-min Rain = 0
KCA1 231342Z 02007KT 11/10 A301 RMK A01 T01120098  RH  091%=      5-min Rain = 0
KCA1 231343Z 01007KT 11/10 A301 RMK A01 T01120097  RH  091%=      5-min Rain = 0
KCA1 231344Z 02007KT 11/10 A301 RMK A01 T01120098  RH  091%=      5-min Rain = 0
KCA1 231345Z 03008KT 11/10 A301 RMK A01 T01120096  RH  090%=      5-min Rain = 0
KCA1 231346Z 01006KT 11/10 A301 RMK A01 T01120096  RH  090%=      5-min Rain = 0
KCA1 231347Z 01006KT 11/10 A301 RMK A01 T01120097  RH  090%=      5-min Rain = 0
KCA1 231348Z 01007KT 11/10 A3011 RMK A01 T01120097  RH  090%=      5-min Rain = 0
KCA1 231349Z 01006KT 11/10 A3011 RMK A01 T01120096  RH  090%=      5-min Rain = 0
KCA1 231350Z 02006KT 11/10 A3011 RMK A01 T01120095  RH  089%=      5-min Rain = 0
KCA1 231351Z 03005KT 11/10 A3011 RMK A01 T01120095  RH  089%=      5-min Rain = 0
KCA1 231352Z 02006KT 11/10 A3011 RMK A01 T01120095  RH  089%=      5-min Rain = 0
KCA1 231353Z 01006KT 11/10 A3011 RMK A01 T01120095  RH  089%=      5-min Rain = 0
KCA1 231354Z 01008KT 11/10 A3011 RMK A01 T01130095  RH  089%=      5-min Rain = 0
KCA1 231355Z 01009KT 11/09 A3011 RMK A01 T01120094  RH  088%=      5-min Rain = 0
KCA1 231356Z 01011KT 11/09 A3011 RMK A01 T01120092  RH  088%=      5-min Rain = 0
KCA1 231357Z 01010KT 11/09 A3011 RMK A01 T01120092  RH  087%=      5-min Rain = 0
KCA1 231358Z 02012KT 11/09 A3011 RMK A01 T01120092  RH  088%=      5-min Rain = 0
KCA1 231359Z 02010KT 11/09 A3011 RMK A01 T01110092  RH  088%=      5-min Rain = 0
KCA1 231400Z 01009KT 11/09 A3011 RMK A01 T01110092  RH  088%=      5-min Rain = 0
KCA1 231401Z 01010KT 11/09 A3011 RMK A01 T01110092  RH  088%=      5-min Rain = 0
KCA1 231402Z 02008KT 11/09 A3011 RMK A01 T01110092  RH  088%=      5-min Rain = 0
KCA1 231403Z 01008KT 11/09 A3011 RMK A01 T01110093  RH  089%=      5-min Rain = 0
KCA1 231404Z 00009KT 11/09 A3011 RMK A01 T01110093  RH  089%=      5-min Rain = 0
KCA1 231405Z 02009KT 11/09 A3011 RMK A01 T01110093  RH  089%=      5-min Rain = 0
KCA1 231406Z 01007KT 11/09 A3011 RMK A01 T01110093  RH  088%=      5-min Rain = 0
KCA1 231407Z 02008KT 11/09 A3011 RMK A01 T01110093  RH  089%=      5-min Rain = 0
KCA1 231408Z 02007KT 11/09 A3011 RMK A01 T01110094  RH  089%=      5-min Rain = 0
KCA1 231409Z 02007KT 11/09 A3011 RMK A01 T01110094  RH  089%=      5-min Rain = 0
KCA1 231410Z 01008KT 11/09 A3011 RMK A01 T01110093  RH  089%=      5-min Rain = 0
KCA1 231411Z 02008KT 11/09 A3011 RMK A01 T01110093  RH  089%=      5-min Rain = 0
KCA1 231412Z 02009KT 11/09 A3011 RMK A01 T01110094  RH  089%=      5-min Rain = 0
KCA1 231413Z 02008KT 11/09 A3011 RMK A01 T01110093  RH  089%=      5-min Rain = 0
KCA1 231414Z 01007KT 11/09 A3011 RMK A01 T01110093  RH  089%=      5-min Rain = 0
KCA1 231415Z 01008KT 11/09 A3011 RMK A01 T01110093  RH  089%=      5-min Rain = 0
KCA1 231416Z 00007KT 11/09 A3011 RMK A01 T01110093  RH  089%=      5-min Rain = 0
KCA1 231417Z 36007KT 11/09 A3011 RMK A01 T01110094  RH  089%=      5-min Rain = 0
KCA1 231418Z 00006KT 11/09 A3011 RMK A01 T01110093  RH  089%=      5-min Rain = 0
KCA1 231419Z 01006KT 11/09 A3011 RMK A01 T01100094  RH  090%=      5-min Rain = 0
KCA1 231420Z 01007KT 11/10 A3011 RMK A01 T01110095  RH  090%=      5-min Rain = 0
KCA1 231421Z 36006KT 11/10 A3011 RMK A01 T01110095  RH  090%=      5-min Rain = 0
KCA1 231422Z 00006KT 11/10 A3011 RMK A01 T01100095  RH  090%=      5-min Rain = 0
KCA1 231423Z 00007KT 11/10 A3011 RMK A01 T01100095  RH  091%=      5-min Rain = 0
KCA1 231424Z 02009KT 11/10 A3011 RMK A01 T01110095  RH  090%=      5-min Rain = 0
KCA1 231425Z 02009KT 11/09 A3011 RMK A01 T01100090  RH  087%=      5-min Rain = 0
KCA1 231426Z 02013KT 11/09 A3011 RMK A01 T01100087  RH  086%=      5-min Rain = 0
KCA1 231427Z 02012KT 11/08 A3011 RMK A01 T01090083  RH  084%=      5-min Rain = 0
KCA1 231428Z 03012KT 11/08 A3012 RMK A01 T01080081  RH  083%=      5-min Rain = 0
KCA1 231429Z 02010KT 11/08 A3012 RMK A01 T01080083  RH  084%=      5-min Rain = 0
KCA1 231430Z 02011KT 11/08 A3012 RMK A01 T01080082  RH  084%=      5-min Rain = 0
KCA1 231431Z 02008KT 11/08 A3012 RMK A01 T01070082  RH  084%=      5-min Rain = 0
KCA1 231432Z 03008KT 11/08 A3012 RMK A01 T01070084  RH  085%=      5-min Rain = 0
KCA1 231433Z 03008KT 11/08 A3012 RMK A01 T01070084  RH  086%=      5-min Rain = 0
KCA1 231434Z 03009KT 11/08 A3012 RMK A01 T01070084  RH  086%=      5-min Rain = 0
KCA1 231435Z 03008KT 11/08 A3012 RMK A01 T01070083  RH  085%=      5-min Rain = 0
KCA1 231436Z 02009KT 11/08 A3012 RMK A01 T01070084  RH  085%=      5-min Rain = 0
KCA1 231437Z 03008KT 11/08 A3012 RMK A01 T01080084  RH  086%=      5-min Rain = 0
KCA1 231438Z 03008KT 11/08 A3012 RMK A01 T01070084  RH  085%=      5-min Rain = 0
KCA1 231439Z 02008KT 11/08 A3012 RMK A01 T01070084  RH  085%=      5-min Rain = 0
KCA1 231440Z 02007KT 11/08 A3012 RMK A01 T01080084  RH  085%=      5-min Rain = 0
KCA1 231441Z 01008KT 11/09 A3012 RMK A01 T01080085  RH  086%=      5-min Rain = 0
KCA1 231442Z 02008KT 11/09 A3012 RMK A01 T01080085  RH  085%=      5-min Rain = 0
KCA1 231443Z 02008KT 11/08 A3012 RMK A01 T01080084  RH  085%=      5-min Rain = 0
KCA1 231444Z 02008KT 11/08 A3012 RMK A01 T01080084  RH  085%=      5-min Rain = 0
KCA1 231445Z 03007KT 11/08 A3011 RMK A01 T01080084  RH  085%=      5-min Rain = 0
KCA1 231446Z 03008KT 11/09 A3011 RMK A01 T01080085  RH  086%=      5-min Rain = 0
KCA1 231447Z 01007KT 11/09 A3011 RMK A01 T01080087  RH  086%=      5-min Rain = 0
KCA1 231448Z 01007KT 11/09 A3011 RMK A01 T01080087  RH  087%=      5-min Rain = 0
KCA1 231449Z 01009KT 11/09 A3011 RMK A01 T01090088  RH  087%=      5-min Rain = 0
KCA1 231450Z 02007KT 11/09 A3011 RMK A01 T01090088  RH  087%=      5-min Rain = 0
KCA1 231451Z 03007KT 11/09 A3011 RMK A01 T01090090  RH  088%=      5-min Rain = 0
KCA1 231452Z 02009KT 11/09 A3011 RMK A01 T01090089  RH  088%=      5-min Rain = 0
KCA1 231453Z 02008KT 11/09 A3011 RMK A01 T01090088  RH  087%=      5-min Rain = 0
KCA1 231454Z 02010KT 11/09 A3011 RMK A01 T01090087  RH  086%=      5-min Rain = 0
KCA1 231455Z 02009KT 11/09 A3011 RMK A01 T01090086  RH  086%=      5-min Rain = 0
KCA1 231456Z 01009KT 11/09 A3011 RMK A01 T01090087  RH  086%=      5-min Rain = 0
KCA1 231457Z 01009KT 11/09 A3011 RMK A01 T01090087  RH  086%=      5-min Rain = 0
KCA1 231458Z 02007KT 11/09 A3011 RMK A01 T01100089  RH  087%=      5-min Rain = 0
KCA1 231459Z 01011KT 11/09 A301 RMK A01 T01100090  RH  087%=      5-min Rain = 0
KCA1 231500Z 01010KT 11/09 A301 RMK A01 T01100087  RH  086%=      5-min Rain = 0
KCA1 231501Z 02010KT 11/09 A301 RMK A01 T01100086  RH  085%=      5-min Rain = 0
KCA1 231502Z 02011KT 11/09 A301 RMK A01 T01100086  RH  085%=      5-min Rain = 0
KCA1 231503Z 01014KT 11/09 A301 RMK A01 T01100085  RH  085%=      5-min Rain = 0
KCA1 231504Z 01014KT 11/08 A301 RMK A01 T01100084  RH  084%=      5-min Rain = 0
KCA1 231505Z 01015KT 11/08 A301 RMK A01 T01100084  RH  084%=      5-min Rain = 0
KCA1 231506Z 00012KT 11/08 A301 RMK A01 T01100084  RH  084%=      5-min Rain = 0
KCA1 231507Z 02014KT 11/09 A301 RMK A01 T01100085  RH  084%=      5-min Rain = 0
KCA1 231508Z 02014KT 11/09 A301 RMK A01 T01110085  RH  084%=      5-min Rain = 0
KCA1 231509Z 02015KT 11/08 A301 RMK A01 T01110084  RH  084%=      5-min Rain = 0
KCA1 231510Z 02014KT 11/08 A301 RMK A01 T01100083  RH  083%=      5-min Rain = 0
KCA1 231511Z 01014KT 11/08 A301 RMK A01 T01110084  RH  084%=      5-min Rain = 0
KCA1 231512Z 02014KT 11/08 A301 RMK A01 T01110083  RH  083%=      5-min Rain = 0
KCA1 231513Z 02014KT 11/08 A301 RMK A01 T01110083  RH  083%=      5-min Rain = 0
KCA1 231514Z 02014KT 11/08 A3009 RMK A01 T01120084  RH  083%=      5-min Rain = 0
KCA1 231515Z 02012KT 11/09 A3009 RMK A01 T01120086  RH  084%=      5-min Rain = 0
KCA1 231516Z 02011KT 11/09 A3009 RMK A01 T01130087  RH  085%=      5-min Rain = 0
KCA1 231517Z 02013KT 11/09 A3009 RMK A01 T01130087  RH  084%=      5-min Rain = 0
KCA1 231518Z 02012KT 11/09 A3009 RMK A01 T01130087  RH  084%=      5-min Rain = 0
KCA1 231519Z 02013KT 11/09 A301 RMK A01 T01130086  RH  083%=      5-min Rain = 0
KCA1 231520Z 01012KT 11/09 A301 RMK A01 T01130085  RH  083%=      5-min Rain = 0
KCA1 231521Z 02011G16KT 11/09 A301 RMK A01 T01130087  RH  084%=      5-min Rain = 0
KCA1 231522Z 02014KT 11/09 A301 RMK A01 T01140087  RH  084%=      5-min Rain = 0
KCA1 231523Z 01014KT 11/09 A301 RMK A01 T01140086  RH  083%=      5-min Rain = 0
KCA1 231524Z 02014KT 11/09 A301 RMK A01 T01140086  RH  083%=      5-min Rain = 0
KCA1 231525Z 02013KT 11/09 A301 RMK A01 T01130086  RH  083%=      5-min Rain = 0
KCA1 231526Z 02012KT 11/09 A301 RMK A01 T01130086  RH  083%=      5-min Rain = 0
KCA1 231527Z 02010KT 11/09 A301 RMK A01 T01140088  RH  084%=      5-min Rain = 0
KCA1 231528Z 01011KT 12/09 A301 RMK A01 T01150090  RH  085%=      5-min Rain = 0
KCA1 231529Z 02012KT 12/09 A3011 RMK A01 T01150088  RH  083%=      5-min Rain = 0
KCA1 231530Z 02011KT 12/09 A3011 RMK A01 T01160087  RH  082%=      5-min Rain = 0
KCA1 231531Z 02015KT 12/09 A3011 RMK A01 T01160086  RH  082%=      5-min Rain = 0
KCA1 231532Z 02013KT 12/09 A3011 RMK A01 T01160085  RH  081%=      5-min Rain = 0
KCA1 231533Z 02016KT 12/09 A3011 RMK A01 T01160085  RH  082%=      5-min Rain = 0
KCA1 231534Z 02015KT 12/08 A3011 RMK A01 T01150084  RH  081%=      5-min Rain = 0
KCA1 231535Z 02016KT 12/08 A3011 RMK A01 T01150084  RH  081%=      5-min Rain = 0
KCA1 231536Z 02015KT 12/08 A301 RMK A01 T01150083  RH  081%=      5-min Rain = 0
KCA1 231537Z 02013KT 12/09 A301 RMK A01 T01150085  RH  082%=      5-min Rain = 0
KCA1 231538Z 02011KT 12/08 A301 RMK A01 T01150084  RH  082%=      5-min Rain = 0
KCA1 231539Z 02014KT 12/09 A301 RMK A01 T01150086  RH  082%=      5-min Rain = 0
KCA1 231540Z 02014KT 12/09 A301 RMK A01 T01160085  RH  081%=      5-min Rain = 0
KCA1 231541Z 02013KT 12/08 A301 RMK A01 T01160084  RH  081%=      5-min Rain = 0
KCA1 231542Z 02013KT 12/09 A301 RMK A01 T01160085  RH  082%=      5-min Rain = 0
KCA1 231543Z 01013KT 12/09 A301 RMK A01 T01160085  RH  081%=      5-min Rain = 0
KCA1 231544Z 01012KT 12/09 A301 RMK A01 T01160086  RH  082%=      5-min Rain = 0
KCA1 231545Z 02011KT 12/09 A3011 RMK A01 T01170087  RH  082%=      5-min Rain = 0
KCA1 231546Z 01012KT 12/09 A3011 RMK A01 T01170087  RH  082%=      5-min Rain = 0
KCA1 231547Z 02014KT 12/09 A3011 RMK A01 T01170086  RH  081%=      5-min Rain = 0
KCA1 231548Z 02009KT 12/09 A3011 RMK A01 T01170085  RH  080%=      5-min Rain = 0
KCA1 231549Z 01010KT 12/09 A3011 RMK A01 T01180087  RH  082%=      5-min Rain = 0
KCA1 231550Z 00013KT 12/09 A3011 RMK A01 T01180087  RH  081%=      5-min Rain = 0
KCA1 231551Z 36012KT 12/09 A3011 RMK A01 T01180086  RH  080%=      5-min Rain = 0
KCA1 231552Z 01011KT 12/09 A3011 RMK A01 T01180086  RH  081%=      5-min Rain = 0
KCA1 231553Z 01010KT 12/09 A3011 RMK A01 T01180086  RH  081%=      5-min Rain = 0
KCA1 231554Z 01012KT 12/09 A3011 RMK A01 T01170086  RH  081%=      5-min Rain = 0
KCA1 231555Z 01012KT 12/09 A3011 RMK A01 T01170086  RH  081%=      5-min Rain = 0
KCA1 231556Z 35010KT 12/09 A3011 RMK A01 T01170087  RH  082%=      5-min Rain = 0
KCA1 231557Z 00011KT 12/09 A3011 RMK A01 T01180087  RH  081%=      5-min Rain = 0
KCA1 231558Z 36008KT 12/09 A3011 RMK A01 T01180088  RH  082%=      5-min Rain = 0
KCA1 231559Z 00011KT 12/09 A3011 RMK A01 T01180088  RH  082%=      5-min Rain = 0
KCA1 231600Z 35011KT 12/09 A3011 RMK A01 T01180086  RH  081%=      5-min Rain = 0
KCA1 231601Z 35013KT 12/09 A3011 RMK A01 T01170086  RH  081%=      5-min Rain = 0
KCA1 231602Z 35013KT 12/09 A3011 RMK A01 T01170085  RH  081%=      5-min Rain = 0
KCA1 231603Z 35013KT 12/09 A3011 RMK A01 T01170085  RH  081%=      5-min Rain = 0
KCA1 231604Z 36014KT 12/09 A3011 RMK A01 T01170085  RH  081%=      5-min Rain = 0
KCA1 231605Z 35013KT 12/08 A3011 RMK A01 T01170083  RH  080%=      5-min Rain = 0
KCA1 231606Z 36011KT 12/09 A301 RMK A01 T01170085  RH  080%=      5-min Rain = 0
KCA1 231607Z 01012KT 12/09 A301 RMK A01 T01190087  RH  081%=      5-min Rain = 0
KCA1 231608Z 01014KT 12/09 A301 RMK A01 T01190086  RH  080%=      5-min Rain = 0
KCA1 231609Z 01014KT 12/08 A301 RMK A01 T01200084  RH  079%=      5-min Rain = 0
KCA1 231610Z 00013KT 12/09 A301 RMK A01 T01200085  RH  079%=      5-min Rain = 0
KCA1 231611Z 35013KT 12/09 A301 RMK A01 T01200085  RH  079%=      5-min Rain = 0
KCA1 231612Z 35013KT 12/09 A301 RMK A01 T01210086  RH  079%=      5-min Rain = 0
KCA1 231613Z 36014KT 12/09 A301 RMK A01 T01220085  RH  078%=      5-min Rain = 0
KCA1 231614Z 00013KT 12/08 A301 RMK A01 T01230083  RH  077%=      5-min Rain = 0
KCA1 231615Z 00013KT 13/09 A301 RMK A01 T01250086  RH  077%=      5-min Rain = 0
KCA1 231616Z 00009KT 13/09 A301 RMK A01 T01260089  RH  078%=      5-min Rain = 0
KCA1 231617Z 36013KT 13/09 A301 RMK A01 T01290093  RH  078%=      5-min Rain = 0
KCA1 231618Z 36012KT 13/09 A301 RMK A01 T01310088  RH  075%=      5-min Rain = 0
KCA1 231619Z 01012KT 13/09 A301 RMK A01 T01300089  RH  076%=      5-min Rain = 0
KCA1 231620Z 01014KT 13/09 A301 RMK A01 T01310087  RH  075%=      5-min Rain = 0
KCA1 231621Z 00016KT 13/09 A301 RMK A01 T01300086  RH  074%=      5-min Rain = 0
KCA1 231622Z 01015KT 13/08 A301 RMK A01 T01280083  RH  074%=      5-min Rain = 0
KCA1 231623Z 01016KT 13/08 A301 RMK A01 T01270082  RH  074%=      5-min Rain = 0
KCA1 231624Z 01016KT 13/08 A301 RMK A01 T01260081  RH  074%=      5-min Rain = 0
KCA1 231625Z 01015KT 13/08 A301 RMK A01 T01260081  RH  074%=      5-min Rain = 0
KCA1 231626Z 00013KT 13/09 A301 RMK A01 T01270085  RH  076%=      5-min Rain = 0
KCA1 231627Z 01012KT 13/08 A301 RMK A01 T01290084  RH  074%=      5-min Rain = 0
KCA1 231628Z 01012KT 13/09 A301 RMK A01 T01280085  RH  075%=      5-min Rain = 0
KCA1 231629Z 01014KT 13/09 A301 RMK A01 T01290087  RH  076%=      5-min Rain = 0
KCA1 231630Z 01013KT 13/09 A301 RMK A01 T01300085  RH  074%=      5-min Rain = 0
KCA1 231631Z 01014KT 13/08 A301 RMK A01 T01290084  RH  074%=      5-min Rain = 0
KCA1 231632Z 00015KT 13/08 A301 RMK A01 T01280082  RH  073%=      5-min Rain = 0
KCA1 231633Z 01011KT 13/08 A301 RMK A01 T01280082  RH  073%=      5-min Rain = 0
KCA1 231634Z 02013KT 13/09 A301 RMK A01 T01310087  RH  075%=      5-min Rain = 0
KCA1 231635Z 02013KT 13/09 A301 RMK A01 T01330087  RH  074%=      5-min Rain = 0
KCA1 231636Z 02014KT 13/09 A301 RMK A01 T01340086  RH  072%=      5-min Rain = 0
KCA1 231637Z 02013KT 13/08 A301 RMK A01 T01340082  RH  071%=      5-min Rain = 0
KCA1 231638Z 02010KT 13/08 A301 RMK A01 T01330083  RH  072%=      5-min Rain = 0
KCA1 231639Z 02013KT 14/09 A301 RMK A01 T01350087  RH  073%=      5-min Rain = 0
KCA1 231640Z 01013KT 14/09 A301 RMK A01 T01350085  RH  072%=      5-min Rain = 0
KCA1 231641Z 36015KT 13/09 A301 RMK A01 T01340085  RH  072%=      5-min Rain = 0
KCA1 231642Z 01012KT 13/08 A301 RMK A01 T01320082  RH  072%=      5-min Rain = 0
KCA1 231643Z 01012KT 13/08 A301 RMK A01 T01310082  RH  072%=      5-min Rain = 0
KCA1 231644Z 03012KT 13/08 A301 RMK A01 T01310083  RH  073%=      5-min Rain = 0
KCA1 231645Z 02012KT 13/08 A301 RMK A01 T01320082  RH  071%=      5-min Rain = 0
KCA1 231646Z 01015KT 13/08 A301 RMK A01 T01330083  RH  071%=      5-min Rain = 0
KCA1 231647Z 02016KT 13/08 A301 RMK A01 T01340084  RH  071%=      5-min Rain = 0
KCA1 231648Z 02015KT 13/08 A301 RMK A01 T01340082  RH  071%=      5-min Rain = 0
KCA1 231649Z 01013KT 13/08 A301 RMK A01 T01340084  RH  072%=      5-min Rain = 0
KCA1 231650Z 01011KT 14/08 A301 RMK A01 T01360084  RH  071%=      5-min Rain = 0
KCA1 231651Z 02015KT 14/08 A301 RMK A01 T01360082  RH  070%=      5-min Rain = 0
KCA1 231652Z 35012KT 14/08 A301 RMK A01 T01350084  RH  071%=      5-min Rain = 0
KCA1 231653Z 35012KT 14/08 A301 RMK A01 T01350084  RH  071%=      5-min Rain = 0
KCA1 231654Z 35012G17KT 13/08 A301 RMK A01 T01340084  RH  072%=      5-min Rain = 0
KCA1 231655Z 01015G20KT 14/09 A301 RMK A01 T01350087  RH  072%=      5-min Rain = 0
KCA1 231656Z 01014KT 14/09 A301 RMK A01 T01350086  RH  072%=      5-min Rain = 0
KCA1 231657Z 00015KT 13/09 A301 RMK A01 T01340086  RH  073%=      5-min Rain = 0
KCA1 231658Z 36012KT 13/09 A301 RMK A01 T01340085  RH  072%=      5-min Rain = 0
KCA1 231659Z 36013KT 13/09 A301 RMK A01 T01340085  RH  072%=      5-min Rain = 0
KCA1 231700Z 35012KT 13/09 A301 RMK A01 T01340086  RH  072%=      5-min Rain = 0
KCA1 231701Z 35010KT 13/09 A301 RMK A01 T01340091  RH  075%=      5-min Rain = 0
KCA1 231702Z 35014KT 14/09 A301 RMK A01 T01380093  RH  074%=      5-min Rain = 0
KCA1 231703Z 35014KT 14/09 A301 RMK A01 T01370085  RH  071%=      5-min Rain = 0
KCA1 231704Z 35013KT 14/09 A301 RMK A01 T01350085  RH  072%=      5-min Rain = 0
KCA1 231705Z 00013KT 13/09 A301 RMK A01 T01340086  RH  072%=      5-min Rain = 0
KCA1 231706Z 00014KT 13/08 A301 RMK A01 T01340084  RH  071%=      5-min Rain = 0
KCA1 231707Z 00012KT 13/09 A301 RMK A01 T01340086  RH  073%=      5-min Rain = 0
KCA1 231708Z 00011KT 14/09 A301 RMK A01 T01350086  RH  072%=      5-min Rain = 0
KCA1 231709Z 01011G16KT 14/09 A301 RMK A01 T01350087  RH  072%=      5-min Rain = 0
KCA1 231710Z 00013KT 14/08 A301 RMK A01 T01350084  RH  071%=      5-min Rain = 0
KCA1 231711Z 01012G17KT 14/08 A301 RMK A01 T01350081  RH  070%=      5-min Rain = 0
KCA1 231712Z 01014KT 13/08 A301 RMK A01 T01340081  RH  070%=      5-min Rain = 0
KCA1 231713Z 01012KT 13/08 A301 RMK A01 T01340083  RH  071%=      5-min Rain = 0
KCA1 231714Z 02011KT 14/08 A301 RMK A01 T01350083  RH  071%=      5-min Rain = 0
KCA1 231715Z 01012KT 14/08 A301 RMK A01 T01350082  RH  070%=      5-min Rain = 0
KCA1 231716Z 00014KT 14/08 A301 RMK A01 T01350080  RH  069%=      5-min Rain = 0
KCA1 231717Z 02013KT 14/08 A301 RMK A01 T01350078  RH  069%=      5-min Rain = 0
KCA1 231718Z 02009KT 14/08 A301 RMK A01 T01350078  RH  069%=      5-min Rain = 0
KCA1 231719Z 00008KT 14/08 A301 RMK A01 T01350080  RH  070%=      5-min Rain = 0
KCA1 231720Z 35015KT 14/08 A301 RMK A01 T01370081  RH  069%=      5-min Rain = 0
KCA1 231721Z 35014KT 14/07 A301 RMK A01 T01370073  RH  065%=      5-min Rain = 0
KCA1 231722Z 35014KT 14/07 A301 RMK A01 T01350071  RH  065%=      5-min Rain = 0
KCA1 231723Z 35010KT 13/07 A301 RMK A01 T01340071  RH  066%=      5-min Rain = 0
KCA1 231724Z 00016KT 14/07 A301 RMK A01 T01350073  RH  066%=      5-min Rain = 0
KCA1 231725Z 00015KT 14/07 A301 RMK A01 T01370071  RH  065%=      5-min Rain = 0
KCA1 231726Z 00011KT 14/07 A301 RMK A01 T01360070  RH  064%=      5-min Rain = 0
KCA1 231727Z 00013KT 14/07 A301 RMK A01 T01380074  RH  065%=      5-min Rain = 0
KCA1 231728Z 00013KT 14/07 A301 RMK A01 T01380072  RH  064%=      5-min Rain = 0
KCA1 231729Z 00012KT 14/07 A301 RMK A01 T01380072  RH  064%=      5-min Rain = 0
KCA1 231730Z 00010KT 14/07 A301 RMK A01 T01360070  RH  065%=      5-min Rain = 0
KCA1 231731Z 36008KT 14/07 A301 RMK A01 T01350072  RH  066%=      5-min Rain = 0
KCA1 231732Z 02011KT 14/07 A301 RMK A01 T01350073  RH  066%=      5-min Rain = 0
KCA1 231733Z 01013KT 14/07 A301 RMK A01 T01360073  RH  066%=      5-min Rain = 0
KCA1 231734Z 01010KT 14/07 A3009 RMK A01 T01360073  RH  066%=      5-min Rain = 0
KCA1 231735Z 02013KT 14/08 A3009 RMK A01 T01380077  RH  066%=      5-min Rain = 0
KCA1 231736Z 00013KT 14/08 A3009 RMK A01 T01390075  RH  065%=      5-min Rain = 0
KCA1 231737Z 00009KT 14/08 A3009 RMK A01 T01380075  RH  066%=      5-min Rain = 0
KCA1 231738Z 01008KT 14/08 A3009 RMK A01 T01380077  RH  067%=      5-min Rain = 0
KCA1 231739Z 01010KT 14/08 A3009 RMK A01 T01390077  RH  066%=      5-min Rain = 0
KCA1 231740Z 01012KT 14/08 A301 RMK A01 T01390079  RH  067%=      5-min Rain = 0
KCA1 231741Z 35010KT 14/08 A301 RMK A01 T01400078  RH  066%=      5-min Rain = 0
KCA1 231742Z 00009KT 14/08 A301 RMK A01 T01390078  RH  067%=      5-min Rain = 0
KCA1 231743Z 00009KT 14/08 A301 RMK A01 T01400081  RH  068%=      5-min Rain = 0
KCA1 231744Z 35010KT 14/08 A301 RMK A01 T01400079  RH  067%=      5-min Rain = 0
KCA1 231745Z 01009KT 14/08 A301 RMK A01 T01400080  RH  067%=      5-min Rain = 0
KCA1 231746Z 01010KT 14/08 A301 RMK A01 T01400080  RH  067%=      5-min Rain = 0
KCA1 231747Z 01008KT 14/08 A301 RMK A01 T01390078  RH  067%=      5-min Rain = 0
KCA1 231748Z 02009KT 14/08 A301 RMK A01 T01400081  RH  068%=      5-min Rain = 0
KCA1 231749Z 02009KT 14/08 A301 RMK A01 T01410079  RH  066%=      5-min Rain = 0
KCA1 231750Z 02008KT 14/08 A3009 RMK A01 T01410080  RH  067%=      5-min Rain = 0
KCA1 231751Z 02007KT 14/08 A3009 RMK A01 T01400082  RH  068%=      5-min Rain = 0
KCA1 231752Z 01007KT 14/08 A3009 RMK A01 T01410082  RH  068%=      5-min Rain = 0
KCA1 231753Z 35007KT 14/08 A3009 RMK A01 T01420083  RH  068%=      5-min Rain = 0
KCA1 231754Z 36008KT 14/09 A3009 RMK A01 T01420086  RH  069%=      5-min Rain = 0
KCA1 231755Z 01012KT 14/08 A3009 RMK A01 T01440084  RH  068%=      5-min Rain = 0
KCA1 231756Z 01010KT 14/08 A3009 RMK A01 T01430081  RH  066%=      5-min Rain = 0
KCA1 231757Z 00008KT 14/08 A3009 RMK A01 T01410082  RH  068%=      5-min Rain = 0
KCA1 231758Z 01006KT 14/08 A3009 RMK A01 T01410081  RH  067%=      5-min Rain = 0
KCA1 231759Z 35006KT 14/08 A3009 RMK A01 T01410082  RH  067%=      5-min Rain = 0
KCA1 231800Z 35009KT 14/09 A3009 RMK A01 T01430086  RH  069%=      5-min Rain = 0
KCA1 231801Z 35010KT 15/08 A3009 RMK A01 T01450083  RH  066%=      5-min Rain = 0
KCA1 231802Z 01010KT 14/08 A3009 RMK A01 T01440082  RH  066%=      5-min Rain = 0
KCA1 231803Z 00008KT 14/08 A3009 RMK A01 T01440080  RH  065%=      5-min Rain = 0
KCA1 231804Z 01008KT 14/08 A3009 RMK A01 T01430080  RH  066%=      5-min Rain = 0
KCA1 231805Z 00008KT 14/08 A3009 RMK A01 T01430083  RH  067%=      5-min Rain = 0
KCA1 231806Z 35008KT 14/08 A3009 RMK A01 T01440082  RH  066%=      5-min Rain = 0
KCA1 231807Z 34009KT 14/08 A3009 RMK A01 T01440080  RH  065%=      5-min Rain = 0
KCA1 231808Z 36009KT 15/08 A3009 RMK A01 T01450083  RH  066%=      5-min Rain = 0
KCA1 231809Z 00012KT 15/08 A3008 RMK A01 T01460083  RH  066%=      5-min Rain = 0
KCA1 231810Z 00012KT 15/08 A3008 RMK A01 T01460081  RH  065%=      5-min Rain = 0
KCA1 231811Z 01011KT 15/08 A3008 RMK A01 T01450079  RH  065%=      5-min Rain = 0
KCA1 231812Z 02011KT 14/08 A3008 RMK A01 T01440079  RH  065%=      5-min Rain = 0
KCA1 231813Z 01010KT 14/08 A3008 RMK A01 T01430077  RH  064%=      5-min Rain = 0
KCA1 231814Z 02009KT 14/08 A3008 RMK A01 T01430081  RH  066%=      5-min Rain = 0
KCA1 231815Z 01012KT 15/08 A3008 RMK A01 T01450080  RH  065%=      5-min Rain = 0
KCA1 231816Z 01010KT 14/08 A3008 RMK A01 T01440077  RH  064%=      5-min Rain = 0
KCA1 231817Z 01010KT 14/08 A3008 RMK A01 T01430080  RH  066%=      5-min Rain = 0
KCA1 231818Z 01012KT 15/08 A3008 RMK A01 T01450080  RH  065%=      5-min Rain = 0
KCA1 231819Z 01009KT 14/08 A3008 RMK A01 T01440078  RH  065%=      5-min Rain = 0
KCA1 231820Z 01008KT 14/08 A3008 RMK A01 T01430080  RH  066%=      5-min Rain = 0
KCA1 231821Z 00009KT 14/08 A3008 RMK A01 T01440081  RH  066%=      5-min Rain = 0
KCA1 231822Z 01010KT 14/08 A3008 RMK A01 T01440079  RH  065%=      5-min Rain = 0
KCA1 231823Z 01010KT 15/08 A3008 RMK A01 T01450081  RH  066%=      5-min Rain = 0
KCA1 231824Z 00010KT 14/08 A3008 RMK A01 T01440077  RH  064%=      5-min Rain = 0
KCA1 231825Z 36011KT 14/08 A3008 RMK A01 T01420075  RH  064%=      5-min Rain = 0
KCA1 231826Z 01009KT 14/08 A3008 RMK A01 T01420078  RH  066%=      5-min Rain = 0
KCA1 231827Z 01007KT 14/08 A3008 RMK A01 T01420077  RH  065%=      5-min Rain = 0
KCA1 231828Z 02007KT 14/08 A3008 RMK A01 T01420077  RH  065%=      5-min Rain = 0
KCA1 231829Z 02010KT 14/08 A3008 RMK A01 T01420078  RH  065%=      5-min Rain = 0
KCA1 231830Z 03013KT 14/08 A3008 RMK A01 T01430078  RH  065%=      5-min Rain = 0
KCA1 231831Z 02009KT 14/08 A3008 RMK A01 T01420077  RH  065%=      5-min Rain = 0
KCA1 231832Z 01008KT 14/08 A3008 RMK A01 T01420077  RH  065%=      5-min Rain = 0
KCA1 231833Z 36006KT 14/08 A3007 RMK A01 T01430078  RH  065%=      5-min Rain = 0
KCA1 231834Z 02007KT 14/08 A3007 RMK A01 T01440077  RH  064%=      5-min Rain = 0
KCA1 231835Z 01005KT 14/08 A3007 RMK A01 T01440076  RH  064%=      5-min Rain = 0
KCA1 231836Z 02006KT 15/08 A3007 RMK A01 T01450082  RH  066%=      5-min Rain = 0
KCA1 231837Z 02009KT 15/08 A3007 RMK A01 T01480083  RH  065%=      5-min Rain = 0
KCA1 231838Z 00010KT 15/08 A3007 RMK A01 T01500081  RH  063%=      5-min Rain = 0
KCA1 231839Z 01011KT 15/08 A3007 RMK A01 T01490081  RH  064%=      5-min Rain = 0
KCA1 231840Z 02010KT 15/08 A3007 RMK A01 T01490078  RH  063%=      5-min Rain = 0
KCA1 231841Z 03008KT 15/08 A3007 RMK A01 T01480076  RH  062%=      5-min Rain = 0
KCA1 231842Z 03008KT 15/08 A3007 RMK A01 T01470078  RH  063%=      5-min Rain = 0
KCA1 231843Z 01005KT 15/08 A3007 RMK A01 T01480082  RH  065%=      5-min Rain = 0
KCA1 231844Z 02004KT 15/08 A3007 RMK A01 T01500079  RH  062%=      5-min Rain = 0
KCA1 231845Z 01005KT 15/08 A3007 RMK A01 T01510080  RH  062%=      5-min Rain = 0
KCA1 231846Z 02009KT 15/08 A3007 RMK A01 T01510080  RH  062%=      5-min Rain = 0
KCA1 231847Z 03008KT 15/08 A3007 RMK A01 T01510080  RH  063%=      5-min Rain = 0
KCA1 231848Z 03006KT 15/08 A3007 RMK A01 T01520081  RH  063%=      5-min Rain = 0
KCA1 231849Z 01007KT 15/08 A3007 RMK A01 T01520081  RH  063%=      5-min Rain = 0
KCA1 231850Z 02009KT 15/08 A3007 RMK A01 T01520078  RH  061%=      5-min Rain = 0
KCA1 231851Z 03007KT 15/08 A3007 RMK A01 T01500075  RH  061%=      5-min Rain = 0
KCA1 231852Z 03007KT 15/07 A3007 RMK A01 T01470074  RH  061%=      5-min Rain = 0
KCA1 231853Z 04006KT 15/08 A3007 RMK A01 T01480078  RH  063%=      5-min Rain = 0
KCA1 231854Z 03009KT 15/08 A3006 RMK A01 T01500080  RH  063%=      5-min Rain = 0
KCA1 231855Z 02009KT 15/08 A3006 RMK A01 T01510076  RH  061%=      5-min Rain = 0
KCA1 231856Z 01009KT 15/08 A3006 RMK A01 T01510076  RH  061%=      5-min Rain = 0
KCA1 231857Z 02005KT 15/08 A3006 RMK A01 T01520078  RH  061%=      5-min Rain = 0
KCA1 231858Z 04007KT 16/09 A3006 RMK A01 T01560086  RH  063%=      5-min Rain = 0
KCA1 231859Z 03010KT 16/08 A3006 RMK A01 T01600083  RH  060%=      5-min Rain = 0
KCA1 231900Z 04008KT 16/08 A3006 RMK A01 T01590078  RH  059%=      5-min Rain = 0
KCA1 231901Z 03006KT 16/08 A3006 RMK A01 T01580078  RH  059%=      5-min Rain = 0
KCA1 231902Z 35006KT 16/08 A3006 RMK A01 T01570077  RH  059%=      5-min Rain = 0
KCA1 231903Z 35012KT 16/08 A3006 RMK A01 T01560076  RH  059%=      5-min Rain = 0
KCA1 231904Z 01010KT 16/07 A3006 RMK A01 T01550074  RH  058%=      5-min Rain = 0
KCA1 231905Z 01008KT 15/07 A3006 RMK A01 T01540074  RH  059%=      5-min Rain = 0
KCA1 231906Z 02010KT 15/08 A3006 RMK A01 T01540077  RH  060%=      5-min Rain = 0
KCA1 231907Z 02012KT 16/08 A3006 RMK A01 T01550077  RH  059%=      5-min Rain = 0
KCA1 231908Z 03012KT 15/08 A3006 RMK A01 T01540075  RH  059%=      5-min Rain = 0
KCA1 231909Z 01010KT 15/07 A3006 RMK A01 T01530073  RH  059%=      5-min Rain = 0
KCA1 231910Z 36009KT 15/07 A3006 RMK A01 T01510072  RH  059%=      5-min Rain = 0
KCA1 231911Z 00010KT 15/07 A3006 RMK A01 T01510072  RH  059%=      5-min Rain = 0
KCA1 231912Z 04010KT 15/07 A3006 RMK A01 T01510073  RH  060%=      5-min Rain = 0
KCA1 231913Z 05010KT 15/08 A3006 RMK A01 T01530076  RH  060%=      5-min Rain = 0
KCA1 231914Z 05011KT 15/08 A3006 RMK A01 T01540077  RH  060%=      5-min Rain = 0
KCA1 231915Z 04010KT 16/08 A3006 RMK A01 T01560077  RH  059%=      5-min Rain = 0
KCA1 231916Z 05012KT 16/08 A3006 RMK A01 T01560075  RH  058%=      5-min Rain = 0
KCA1 231917Z 05010KT 16/07 A3006 RMK A01 T01560072  RH  057%=      5-min Rain = 0
KCA1 231918Z 03007KT 16/07 A3006 RMK A01 T01550072  RH  058%=      5-min Rain = 0
KCA1 231919Z 01008KT 16/07 A3005 RMK A01 T01550073  RH  058%=      5-min Rain = 0
KCA1 231920Z 01008KT 16/07 A3006 RMK A01 T01560074  RH  058%=      5-min Rain = 0
KCA1 231921Z 02007KT 16/07 A3005 RMK A01 T01570072  RH  057%=      5-min Rain = 0
KCA1 231922Z 02008KT 16/07 A3005 RMK A01 T01570072  RH  057%=      5-min Rain = 0
KCA1 231923Z 00010KT 16/08 A3005 RMK A01 T01580076  RH  058%=      5-min Rain = 0
KCA1 231924Z 01007KT 16/08 A3005 RMK A01 T01590077  RH  058%=      5-min Rain = 0
KCA1 231925Z 02007KT 16/07 A3005 RMK A01 T01600073  RH  057%=      5-min Rain = 0
KCA1 231926Z 02009KT 16/07 A3005 RMK A01 T01590073  RH  057%=      5-min Rain = 0
KCA1 231927Z 01010KT 16/08 A3005 RMK A01 T01580075  RH  058%=      5-min Rain = 0
KCA1 231928Z 01008KT 16/07 A3005 RMK A01 T01580074  RH  058%=      5-min Rain = 0
KCA1 231929Z 01010KT 16/08 A3005 RMK A01 T01590081  RH  060%=      5-min Rain = 0
KCA1 231930Z 00010KT 16/08 A3005 RMK A01 T01610078  RH  058%=      5-min Rain = 0
KCA1 231931Z 02008KT 16/08 A3005 RMK A01 T01600076  RH  057%=      5-min Rain = 0
KCA1 231932Z 02008KT 16/07 A3005 RMK A01 T01590073  RH  057%=      5-min Rain = 0
KCA1 231933Z 36009KT 16/08 A3005 RMK A01 T01580075  RH  058%=      5-min Rain = 0
KCA1 231934Z 33006KT 16/07 A3005 RMK A01 T01560070  RH  056%=      5-min Rain = 0
KCA1 231935Z 01007KT 16/08 A3005 RMK A01 T01550075  RH  059%=      5-min Rain = 0
KCA1 231936Z 01008KT 16/08 A3005 RMK A01 T01580079  RH  059%=      5-min Rain = 0
KCA1 231937Z 01008KT 16/08 A3005 RMK A01 T01620079  RH  058%=      5-min Rain = 0
KCA1 231938Z 01006KT 16/08 A3005 RMK A01 T01620076  RH  056%=      5-min Rain = 0
KCA1 231939Z 01005KT 16/08 A3005 RMK A01 T01610075  RH  057%=      5-min Rain = 0
KCA1 231940Z 02007KT 16/08 A3005 RMK A01 T01620081  RH  059%=      5-min Rain = 0
KCA1 231941Z 01009KT 16/08 A3004 RMK A01 T01630077  RH  057%=      5-min Rain = 0
KCA1 231942Z 35009KT 16/08 A3004 RMK A01 T01630076  RH  057%=      5-min Rain = 0
KCA1 231943Z 36008KT 16/08 A3004 RMK A01 T01630075  RH  056%=      5-min Rain = 0
KCA1 231944Z 35009KT 16/08 A3004 RMK A01 T01620075  RH  056%=      5-min Rain = 0
KCA1 231945Z 00014KT 16/08 A3004 RMK A01 T01630076  RH  057%=      5-min Rain = 0
KCA1 231946Z 03010KT 16/08 A3004 RMK A01 T01620077  RH  057%=      5-min Rain = 0
KCA1 231947Z 02012KT 16/08 A3004 RMK A01 T01620080  RH  058%=      5-min Rain = 0
KCA1 231948Z 02010KT 16/08 A3004 RMK A01 T01610080  RH  058%=      5-min Rain = 0
KCA1 231949Z 03010KT 16/08 A3004 RMK A01 T01610081  RH  059%=      5-min Rain = 0
KCA1 231950Z 04010KT 16/08 A3004 RMK A01 T01620078  RH  057%=      5-min Rain = 0
KCA1 231951Z 04010KT 16/08 A3004 RMK A01 T01620079  RH  058%=      5-min Rain = 0
KCA1 231952Z 05009KT 16/08 A3004 RMK A01 T01610076  RH  057%=      5-min Rain = 0
KCA1 231953Z 05009KT 16/08 A3004 RMK A01 T01600077  RH  058%=      5-min Rain = 0
KCA1 231954Z 04010KT 16/08 A3004 RMK A01 T01590076  RH  058%=      5-min Rain = 0
KCA1 231955Z 02007KT 16/08 A3004 RMK A01 T01580076  RH  058%=      5-min Rain = 0
KCA1 231956Z 00007KT 16/08 A3004 RMK A01 T01570076  RH  058%=      5-min Rain = 0
KCA1 231957Z 01007KT 16/08 A3004 RMK A01 T01580077  RH  058%=      5-min Rain = 0
KCA1 231958Z 36010KT 16/08 A3004 RMK A01 T01590078  RH  059%=      5-min Rain = 0
KCA1 231959Z 35012KT 16/08 A3004 RMK A01 T01600078  RH  058%=      5-min Rain = 0
KCA1 232000Z 00009KT 16/08 A3004 RMK A01 T01610079  RH  058%=      5-min Rain = 0
KCA1 232001Z 01006KT 16/07 A3004 RMK A01 T01600074  RH  057%=      5-min Rain = 0
KCA1 232002Z 35010KT 16/08 A3004 RMK A01 T01580075  RH  058%=      5-min Rain = 0
KCA1 232003Z 34009KT 16/08 A3004 RMK A01 T01580077  RH  059%=      5-min Rain = 0
KCA1 232004Z 34009KT 16/08 A3004 RMK A01 T01590077  RH  058%=      5-min Rain = 0
KCA1 232005Z 33011KT 16/08 A3004 RMK A01 T01590078  RH  058%=      5-min Rain = 0
KCA1 232006Z 34011KT 16/08 A3004 RMK A01 T01590078  RH  059%=      5-min Rain = 0
KCA1 232007Z 33010KT 16/08 A3004 RMK A01 T01600080  RH  059%=      5-min Rain = 0
KCA1 232008Z 33009KT 16/08 A3004 RMK A01 T01610081  RH  059%=      5-min Rain = 0
KCA1 232009Z 33009KT 16/08 A3004 RMK A01 T01620079  RH  058%=      5-min Rain = 0
KCA1 232010Z 34011KT 16/08 A3004 RMK A01 T01620079  RH  058%=      5-min Rain = 0
KCA1 232011Z 36012KT 16/08 A3004 RMK A01 T01620079  RH  058%=      5-min Rain = 0
KCA1 232012Z 36009KT 16/07 A3004 RMK A01 T01600073  RH  056%=      5-min Rain = 0
KCA1 232013Z 00007KT 16/07 A3004 RMK A01 T01580073  RH  057%=      5-min Rain = 0
KCA1 232014Z 00008KT 16/08 A3004 RMK A01 T01580079  RH  059%=      5-min Rain = 0
KCA1 232015Z 36007KT 16/07 A3004 RMK A01 T01590073  RH  057%=      5-min Rain = 0
KCA1 232016Z 35009KT 16/08 A3004 RMK A01 T01590075  RH  058%=      5-min Rain = 0
KCA1 232017Z 35006KT 16/07 A3004 RMK A01 T01590071  RH  056%=      5-min Rain = 0
KCA1 232018Z 35007KT 16/08 A3004 RMK A01 T01580075  RH  058%=      5-min Rain = 0
KCA1 232019Z 00009KT 16/08 A3004 RMK A01 T01620081  RH  059%=      5-min Rain = 0
KCA1 232020Z 01011KT 16/08 A3004 RMK A01 T01630079  RH  058%=      5-min Rain = 0
KCA1 232021Z 01008KT 16/07 A3004 RMK A01 T01610074  RH  056%=      5-min Rain = 0
KCA1 232022Z 36011KT 16/08 A3004 RMK A01 T01590075  RH  058%=      5-min Rain = 0
KCA1 232023Z 34010KT 16/08 A3004 RMK A01 T01600078  RH  058%=      5-min Rain = 0
KCA1 232024Z 35008KT 16/07 A3004 RMK A01 T01600074  RH  057%=      5-min Rain = 0
KCA1 232025Z 34007KT 16/08 A3004 RMK A01 T01600076  RH  057%=      5-min Rain = 0
KCA1 232026Z 34009KT 16/07 A3004 RMK A01 T01600073  RH  056%=      5-min Rain = 0
KCA1 232027Z 34006KT 16/07 A3004 RMK A01 T01590072  RH  056%=      5-min Rain = 0
KCA1 232028Z 33007KT 16/07 A3004 RMK A01 T01590073  RH  057%=      5-min Rain = 0
KCA1 232029Z 34009KT 16/07 A3004 RMK A01 T01590074  RH  057%=      5-min Rain = 0
KCA1 232030Z 35006KT 16/08 A3004 RMK A01 T01590075  RH  057%=      5-min Rain = 0
KCA1 232031Z 36009KT 16/08 A3004 RMK A01 T01610077  RH  057%=      5-min Rain = 0
KCA1 232032Z 35009KT 16/08 A3004 RMK A01 T01610076  RH  057%=      5-min Rain = 0
KCA1 232033Z 35010KT 16/08 A3004 RMK A01 T01610075  RH  056%=      5-min Rain = 0
KCA1 232034Z 35011KT 16/08 A3004 RMK A01 T01610075  RH  057%=      5-min Rain = 0
KCA1 232035Z 36012KT 16/07 A3004 RMK A01 T01610073  RH  056%=      5-min Rain = 0
KCA1 232036Z 36012KT 16/07 A3004 RMK A01 T01590072  RH  056%=      5-min Rain = 0
KCA1 232037Z 00010KT 16/07 A3004 RMK A01 T01580073  RH  057%=      5-min Rain = 0
KCA1 232038Z 35010KT 16/07 A3004 RMK A01 T01580072  RH  057%=      5-min Rain = 0
KCA1 232039Z 00007KT 16/07 A3004 RMK A01 T01580073  RH  057%=      5-min Rain = 0
KCA1 232040Z 35009KT 16/07 A3004 RMK A01 T01580072  RH  057%=      5-min Rain = 0
KCA1 232041Z 34009KT 16/08 A3004 RMK A01 T01590078  RH  058%=      5-min Rain = 0
KCA1 232042Z 34012KT 16/08 A3004 RMK A01 T01630078  RH  057%=      5-min Rain = 0
KCA1 232043Z 33012KT 16/08 A3004 RMK A01 T01630075  RH  056%=      5-min Rain = 0
KCA1 232044Z 34011KT 16/08 A3004 RMK A01 T01620077  RH  057%=      5-min Rain = 0
KCA1 232045Z 35010KT 16/08 A3004 RMK A01 T01630077  RH  057%=      5-min Rain = 0
KCA1 232046Z 34009KT 16/08 A3004 RMK A01 T01640075  RH  056%=      5-min Rain = 0
KCA1 232047Z 34012KT 16/08 A3004 RMK A01 T01640078  RH  056%=      5-min Rain = 0
KCA1 232048Z 35011KT 17/07 A3004 RMK A01 T01660074  RH  055%=      5-min Rain = 0
KCA1 232049Z 34010KT 17/07 A3004 RMK A01 T01650073  RH  055%=      5-min Rain = 0
KCA1 232050Z 34009KT 17/07 A3004 RMK A01 T01650074  RH  055%=      5-min Rain = 0
KCA1 232051Z 33007KT 17/08 A3004 RMK A01 T01650075  RH  055%=      5-min Rain = 0
KCA1 232052Z 33005KT 17/07 A3003 RMK A01 T01660073  RH  054%=      5-min Rain = 0
KCA1 232053Z 33005KT 17/07 A3003 RMK A01 T01650072  RH  054%=      5-min Rain = 0
KCA1 232054Z 35011KT 17/07 A3003 RMK A01 T01660074  RH  055%=      5-min Rain = 0
KCA1 232055Z 34010KT 17/08 A3003 RMK A01 T01670079  RH  056%=      5-min Rain = 0
KCA1 232056Z 34011KT 17/08 A3003 RMK A01 T01710081  RH  055%=      5-min Rain = 0
KCA1 232057Z 34011KT 17/08 A3003 RMK A01 T01710076  RH  054%=      5-min Rain = 0
KCA1 232058Z 34010KT 17/07 A3003 RMK A01 T01680074  RH  054%=      5-min Rain = 0
KCA1 232059Z 34010KT 17/08 A3004 RMK A01 T01660076  RH  055%=      5-min Rain = 0
KCA1 232100Z 33009KT 17/08 A3003 RMK A01 T01660075  RH  055%=      5-min Rain = 0
KCA1 232101Z 33009KT 17/07 A3003 RMK A01 T01650073  RH  054%=      5-min Rain = 0
KCA1 232102Z 33011KT 17/08 A3003 RMK A01 T01650076  RH  056%=      5-min Rain = 0
KCA1 232103Z 33010KT 17/08 A3003 RMK A01 T01680078  RH  055%=      5-min Rain = 0
KCA1 232104Z 34008KT 17/07 A3003 RMK A01 T01680074  RH  054%=      5-min Rain = 0
KCA1 232105Z 33008G14KT 17/07 A3003 RMK A01 T01670072  RH  053%=      5-min Rain = 0
KCA1 232106Z 00013KT 17/07 A3003 RMK A01 T01670074  RH  054%=      5-min Rain = 0
KCA1 232107Z 02011KT 17/07 A3003 RMK A01 T01670069  RH  052%=      5-min Rain = 0
KCA1 232108Z 36012G17KT 17/07 A3003 RMK A01 T01660069  RH  053%=      5-min Rain = 0
KCA1 232109Z 36010KT 17/07 A3003 RMK A01 T01650069  RH  053%=      5-min Rain = 0
KCA1 232110Z 33011KT 17/07 A3003 RMK A01 T01680073  RH  054%=      5-min Rain = 0
KCA1 232111Z 32012KT 17/07 A3003 RMK A01 T01680069  RH  052%=      5-min Rain = 0
KCA1 232112Z 32010KT 17/07 A3003 RMK A01 T01650068  RH  052%=      5-min Rain = 0
KCA1 232113Z 33014KT 16/07 A3003 RMK A01 T01630066  RH  052%=      5-min Rain = 0
KCA1 232114Z 34012KT 16/07 A3003 RMK A01 T01630067  RH  053%=      5-min Rain = 0
KCA1 232115Z 35009G14KT 17/07 A3003 RMK A01 T01650072  RH  054%=      5-min Rain = 0
KCA1 232116Z 36010KT 17/07 A3003 RMK A01 T01700074  RH  053%=      5-min Rain = 0
KCA1 232117Z 34012KT 17/07 A3003 RMK A01 T01700072  RH  052%=      5-min Rain = 0
KCA1 232118Z 33012KT 17/07 A3002 RMK A01 T01680067  RH  051%=      5-min Rain = 0
KCA1 232119Z 32010KT 17/07 A3002 RMK A01 T01650067  RH  052%=      5-min Rain = 0
KCA1 232120Z 33013KT 17/07 A3002 RMK A01 T01650069  RH  053%=      5-min Rain = 0
KCA1 232121Z 33013KT 17/07 A3002 RMK A01 T01670071  RH  053%=      5-min Rain = 0
KCA1 232122Z 33012KT 17/07 A3002 RMK A01 T01680071  RH  052%=      5-min Rain = 0
KCA1 232123Z 35010KT 17/07 A3002 RMK A01 T01680067  RH  052%=      5-min Rain = 0
KCA1 232124Z 36007KT 17/07 A3002 RMK A01 T01650067  RH  052%=      5-min Rain = 0
KCA1 232125Z 34011KT 17/07 A3002 RMK A01 T01650072  RH  054%=      5-min Rain = 0
KCA1 232126Z 33011KT 17/07 A3002 RMK A01 T01660070  RH  053%=      5-min Rain = 0
KCA1 232127Z 33009KT 17/07 A3002 RMK A01 T01660069  RH  052%=      5-min Rain = 0
KCA1 232128Z 34010KT 17/07 A3002 RMK A01 T01670070  RH  053%=      5-min Rain = 0
KCA1 232129Z 34013KT 17/07 A3002 RMK A01 T01670069  RH  052%=      5-min Rain = 0
KCA1 232130Z 34013KT 17/07 A3002 RMK A01 T01660068  RH  052%=      5-min Rain = 0
KCA1 232131Z 34012KT 16/06 A3002 RMK A01 T01640064  RH  052%=      5-min Rain = 0
KCA1 232132Z 35011KT 16/06 A3002 RMK A01 T01620061  RH  051%=      5-min Rain = 0
KCA1 232133Z 36011KT 16/07 A3002 RMK A01 T01610065  RH  053%=      5-min Rain = 0
KCA1 232134Z 00010KT 16/06 A3002 RMK A01 T01610063  RH  052%=      5-min Rain = 0
KCA1 232135Z 00012KT 16/07 A3002 RMK A01 T01610065  RH  053%=      5-min Rain = 0
KCA1 232136Z 35011KT 16/06 A3002 RMK A01 T01610064  RH  053%=      5-min Rain = 0
KCA1 232137Z 01010KT 16/07 A3002 RMK A01 T01620067  RH  054%=      5-min Rain = 0
KCA1 232138Z 01011KT 16/07 A3002 RMK A01 T01620066  RH  053%=      5-min Rain = 0
KCA1 232139Z 33011KT 16/07 A3002 RMK A01 T01620067  RH  053%=      5-min Rain = 0
KCA1 232140Z 34012KT 16/07 A3002 RMK A01 T01630067  RH  053%=      5-min Rain = 0
KCA1 232141Z 35014KT 16/06 A3002 RMK A01 T01630060  RH  051%=      5-min Rain = 0
KCA1 232142Z 34013KT 16/06 A3002 RMK A01 T01600058  RH  051%=      5-min Rain = 0
KCA1 232143Z 33012KT 16/06 A3002 RMK A01 T01600059  RH  051%=      5-min Rain = 0
KCA1 232144Z 33013KT 16/06 A3002 RMK A01 T01600061  RH  052%=      5-min Rain = 0
KCA1 232145Z 33010KT 16/06 A3002 RMK A01 T01600058  RH  051%=      5-min Rain = 0
KCA1 232146Z 33010KT 16/06 A3002 RMK A01 T01590062  RH  052%=      5-min Rain = 0
KCA1 232147Z 31011KT 16/06 A3002 RMK A01 T01610061  RH  051%=      5-min Rain = 0
KCA1 232148Z 31013KT 16/06 A3002 RMK A01 T01610057  RH  050%=      5-min Rain = 0
KCA1 232149Z 32009KT 16/06 A3002 RMK A01 T01600058  RH  051%=      5-min Rain = 0
KCA1 232150Z 32008KT 16/06 A3002 RMK A01 T01600063  RH  052%=      5-min Rain = 0
KCA1 232151Z 32011KT 16/06 A3002 RMK A01 T01630064  RH  052%=      5-min Rain = 0
KCA1 232152Z 32011KT 16/06 A3002 RMK A01 T01640061  RH  050%=      5-min Rain = 0
KCA1 232153Z 33008KT 16/06 A3002 RMK A01 T01640063  RH  051%=      5-min Rain = 0
KCA1 232154Z 32008KT 17/06 A3002 RMK A01 T01650064  RH  051%=      5-min Rain = 0
KCA1 232155Z 33009KT 17/06 A3002 RMK A01 T01650060  RH  050%=      5-min Rain = 0
KCA1 232156Z 35008KT 16/06 A3002 RMK A01 T01640058  RH  050%=      5-min Rain = 0
KCA1 232157Z 34011KT 16/06 A3002 RMK A01 T01640062  RH  051%=      5-min Rain = 0
KCA1 232158Z 36012KT 17/06 A3002 RMK A01 T01660063  RH  051%=      5-min Rain = 0
KCA1 232159Z 35013KT 17/06 A3002 RMK A01 T01650057  RH  049%=      5-min Rain = 0
KCA1 232200Z 36012KT 16/06 A3002 RMK A01 T01630058  RH  050%=      5-min Rain = 0
KCA1 232201Z 00012KT 16/06 A3003 RMK A01 T01620058  RH  050%=      5-min Rain = 0
KCA1 232202Z 01010KT 16/05 A3003 RMK A01 T01610054  RH  049%=      5-min Rain = 0
KCA1 232203Z 01007KT 16/05 A3003 RMK A01 T01600053  RH  049%=      5-min Rain = 0
KCA1 232204Z 33010KT 16/06 A3003 RMK A01 T01600057  RH  050%=      5-min Rain = 0
KCA1 232205Z 32011KT 16/06 A3003 RMK A01 T01600057  RH  050%=      5-min Rain = 0
KCA1 232206Z 32011KT 16/06 A3003 RMK A01 T01610059  RH  051%=      5-min Rain = 0
KCA1 232207Z 33011KT 16/06 A3003 RMK A01 T01630062  RH  051%=      5-min Rain = 0
KCA1 232208Z 34008KT 16/06 A3003 RMK A01 T01640059  RH  050%=      5-min Rain = 0
KCA1 232209Z 34008G13KT 16/06 A3003 RMK A01 T01640061  RH  051%=      5-min Rain = 0
KCA1 232210Z 32012KT 17/06 A3003 RMK A01 T01660064  RH  051%=      5-min Rain = 0
KCA1 232211Z 34009KT 17/06 A3003 RMK A01 T01680061  RH  049%=      5-min Rain = 0
KCA1 232212Z 34010KT 17/06 A3003 RMK A01 T01670061  RH  049%=      5-min Rain = 0
KCA1 232213Z 36008KT 17/06 A3003 RMK A01 T01670058  RH  049%=      5-min Rain = 0
KCA1 232214Z 36007KT 17/06 A3003 RMK A01 T01650058  RH  049%=      5-min Rain = 0
KCA1 232215Z 36007KT 16/06 A3003 RMK A01 T01640061  RH  050%=      5-min Rain = 0
KCA1 232216Z 33005G10KT 16/06 A3003 RMK A01 T01640063  RH  051%=      5-min Rain = 0
KCA1 232217Z 33007KT 17/06 A3003 RMK A01 T01650063  RH  051%=      5-min Rain = 0
KCA1 232218Z 32006KT 17/07 A3003 RMK A01 T01670066  RH  052%=      5-min Rain = 0
KCA1 232219Z 32009KT 17/06 A3003 RMK A01 T01670060  RH  049%=      5-min Rain = 0
KCA1 232220Z 33008KT 16/06 A3003 RMK A01 T01640057  RH  049%=      5-min Rain = 0
KCA1 232221Z 33008KT 16/06 A3003 RMK A01 T01630058  RH  050%=      5-min Rain = 0
KCA1 232222Z 34007KT 16/06 A3003 RMK A01 T01620057  RH  050%=      5-min Rain = 0
KCA1 232223Z 34010G15KT 16/06 A3002 RMK A01 T01610061  RH  051%=      5-min Rain = 0
KCA1 232224Z 35011KT 16/06 A3003 RMK A01 T01620061  RH  051%=      5-min Rain = 0
KCA1 232225Z 34008KT 16/06 A3003 RMK A01 T01630061  RH  051%=      5-min Rain = 0
KCA1 232226Z 33009KT 16/06 A3003 RMK A01 T01630061  RH  051%=      5-min Rain = 0
KCA1 232227Z 33009KT 16/06 A3003 RMK A01 T01640063  RH  051%=      5-min Rain = 0
KCA1 232228Z 33008KT 16/06 A3003 RMK A01 T01640059  RH  050%=      5-min Rain = 0
KCA1 232229Z 34009KT 16/06 A3003 RMK A01 T01630058  RH  050%=      5-min Rain = 0
KCA1 232230Z 00010KT 16/06 A3003 RMK A01 T01630058  RH  050%=      5-min Rain = 0
KCA1 232231Z 36008KT 16/06 A3003 RMK A01 T01610056  RH  050%=      5-min Rain = 0
KCA1 232232Z 34008KT 16/06 A3003 RMK A01 T01600060  RH  051%=      5-min Rain = 0
KCA1 232233Z 33010KT 16/06 A3003 RMK A01 T01610058  RH  050%=      5-min Rain = 0
KCA1 232234Z 33008KT 16/05 A3003 RMK A01 T01600052  RH  049%=      5-min Rain = 0
KCA1 232235Z 32008KT 16/06 A3003 RMK A01 T01590056  RH  050%=      5-min Rain = 0
KCA1 232236Z 35010KT 16/06 A3003 RMK A01 T01590059  RH  052%=      5-min Rain = 0
KCA1 232237Z 35010KT 16/06 A3003 RMK A01 T01590057  RH  050%=      5-min Rain = 0
KCA1 232238Z 33009KT 16/06 A3003 RMK A01 T01590058  RH  051%=      5-min Rain = 0
KCA1 232239Z 32009KT 16/06 A3003 RMK A01 T01580058  RH  051%=      5-min Rain = 0
KCA1 232240Z 34009KT 16/06 A3003 RMK A01 T01580058  RH  051%=      5-min Rain = 0
KCA1 232241Z 35011KT 16/06 A3003 RMK A01 T01580056  RH  051%=      5-min Rain = 0
KCA1 232242Z 35010KT 16/06 A3003 RMK A01 T01570057  RH  051%=      5-min Rain = 0
KCA1 232243Z 33009KT 16/06 A3003 RMK A01 T01580058  RH  052%=      5-min Rain = 0
KCA1 232244Z 34009KT 16/06 A3003 RMK A01 T01580061  RH  053%=      5-min Rain = 0
KCA1 232245Z 34011KT 16/06 A3003 RMK A01 T01590060  RH  052%=      5-min Rain = 0
KCA1 232246Z 33010KT 16/06 A3003 RMK A01 T01590056  RH  050%=      5-min Rain = 0
KCA1 232247Z 33008KT 16/06 A3003 RMK A01 T01570055  RH  051%=      5-min Rain = 0
KCA1 232248Z 33009KT 16/06 A3003 RMK A01 T01570057  RH  051%=      5-min Rain = 0
KCA1 232249Z 33010KT 16/06 A3003 RMK A01 T01580056  RH  051%=      5-min Rain = 0
KCA1 232250Z 33011KT 16/06 A3003 RMK A01 T01580055  RH  050%=      5-min Rain = 0
KCA1 232251Z 33012KT 16/05 A3003 RMK A01 T01580053  RH  050%=      5-min Rain = 0
KCA1 232252Z 32011KT 16/05 A3003 RMK A01 T01580054  RH  050%=      5-min Rain = 0
KCA1 232253Z 31010KT 16/05 A3003 RMK A01 T01590054  RH  050%=      5-min Rain = 0
KCA1 232254Z 32009KT 16/06 A3003 RMK A01 T01600057  RH  050%=      5-min Rain = 0
KCA1 232255Z 32011KT 16/06 A3003 RMK A01 T01630057  RH  050%=      5-min Rain = 0
KCA1 232256Z 33010KT 16/06 A3003 RMK A01 T01630056  RH  049%=      5-min Rain = 0
KCA1 232257Z 32011KT 16/06 A3003 RMK A01 T01630056  RH  049%=      5-min Rain = 0
KCA1 232258Z 33009KT 16/06 A3003 RMK A01 T01630056  RH  049%=      5-min Rain = 0
KCA1 232259Z 35010KT 16/06 A3003 RMK A01 T01630056  RH  049%=      5-min Rain = 0
KCA1 232300Z 33009KT 16/06 A3003 RMK A01 T01620056  RH  049%=      5-min Rain = 0
KCA1 232301Z 34008KT 16/06 A3003 RMK A01 T01620058  RH  050%=      5-min Rain = 0
KCA1 232302Z 33008KT 16/06 A3003 RMK A01 T01630060  RH  050%=      5-min Rain = 0
KCA1 232303Z 34008KT 17/06 A3003 RMK A01 T01650062  RH  050%=      5-min Rain = 0
KCA1 232304Z 32009KT 17/06 A3003 RMK A01 T01660060  RH  050%=      5-min Rain = 0
KCA1 232305Z 32010KT 17/06 A3003 RMK A01 T01650056  RH  048%=      5-min Rain = 0
KCA1 232306Z 34008KT 16/06 A3003 RMK A01 T01640059  RH  050%=      5-min Rain = 0
KCA1 232307Z 33010KT 17/06 A3003 RMK A01 T01650061  RH  050%=      5-min Rain = 0
KCA1 232308Z 33010KT 17/06 A3003 RMK A01 T01650057  RH  049%=      5-min Rain = 0
KCA1 232309Z 34008KT 16/06 A3003 RMK A01 T01640055  RH  048%=      5-min Rain = 0
KCA1 232310Z 34006KT 16/05 A3003 RMK A01 T01630053  RH  048%=      5-min Rain = 0
KCA1 232311Z 33006KT 16/05 A3003 RMK A01 T01620053  RH  048%=      5-min Rain = 0
KCA1 232312Z 32007KT 16/06 A3003 RMK A01 T01620057  RH  050%=      5-min Rain = 0
KCA1 232313Z 32012KT 16/06 A3003 RMK A01 T01640056  RH  049%=      5-min Rain = 0
KCA1 232314Z 34011KT 16/06 A3003 RMK A01 T01640055  RH  049%=      5-min Rain = 0
KCA1 232315Z 33010KT 16/05 A3003 RMK A01 T01630053  RH  048%=      5-min Rain = 0
KCA1 232316Z 33013KT 16/05 A3003 RMK A01 T01620054  RH  049%=      5-min Rain = 0
KCA1 232317Z 34011KT 16/05 A3003 RMK A01 T01610049  RH  048%=      5-min Rain = 0
KCA1 232318Z 33009KT 16/05 A3003 RMK A01 T01590048  RH  048%=      5-min Rain = 0
KCA1 232319Z 33012KT 16/05 A3003 RMK A01 T01580049  RH  048%=      5-min Rain = 0
KCA1 232320Z 33011KT 16/05 A3003 RMK A01 T01570049  RH  048%=      5-min Rain = 0
KCA1 232321Z 34010KT 16/05 A3003 RMK A01 T01580052  RH  050%=      5-min Rain = 0
KCA1 232322Z 35010KT 16/05 A3003 RMK A01 T01580054  RH  050%=      5-min Rain = 0
KCA1 232323Z 34012KT 16/05 A3003 RMK A01 T01580051  RH  049%=      5-min Rain = 0
KCA1 232324Z 33013KT 16/05 A3003 RMK A01 T01570048  RH  048%=      5-min Rain = 0
KCA1 232325Z 32013KT 16/05 A3003 RMK A01 T01550046  RH  048%=      5-min Rain = 0
KCA1 232326Z 32013KT 15/05 A3003 RMK A01 T01540045  RH  048%=      5-min Rain = 0
KCA1 232327Z 33010KT 15/05 A3003 RMK A01 T01530049  RH  050%=      5-min Rain = 0
KCA1 232328Z 33010KT 15/05 A3003 RMK A01 T01530049  RH  050%=      5-min Rain = 0
KCA1 232329Z 34010KT 15/05 A3003 RMK A01 T01530051  RH  051%=      5-min Rain = 0
KCA1 232330Z 35011KT 15/05 A3003 RMK A01 T01530048  RH  049%=      5-min Rain = 0
KCA1 232331Z 34010KT 15/05 A3003 RMK A01 T01520047  RH  049%=      5-min Rain = 0
KCA1 232332Z 34008KT 15/05 A3003 RMK A01 T01520050  RH  051%=      5-min Rain = 0
KCA1 232333Z 34012KT 15/05 A3003 RMK A01 T01520050  RH  051%=      5-min Rain = 0
KCA1 232334Z 34011KT 15/05 A3003 RMK A01 T01510047  RH  050%=      5-min Rain = 0
KCA1 232335Z 34009KT 15/05 A3003 RMK A01 T01510047  RH  050%=      5-min Rain = 0
KCA1 232336Z 33008KT 15/05 A3003 RMK A01 T01500051  RH  051%=      5-min Rain = 0
KCA1 232337Z 34007KT 15/05 A3003 RMK A01 T01500052  RH  052%=      5-min Rain = 0
KCA1 232338Z 34008KT 15/05 A3002 RMK A01 T01510053  RH  052%=      5-min Rain = 0
KCA1 232339Z 33009KT 15/05 A3002 RMK A01 T01510051  RH  051%=      5-min Rain = 0
KCA1 232340Z 34008KT 15/05 A3002 RMK A01 T01510050  RH  051%=      5-min Rain = 0
KCA1 232341Z 34007KT 15/05 A3002 RMK A01 T01510050  RH  051%=      5-min Rain = 0
KCA1 232342Z 34009KT 15/05 A3002 RMK A01 T01510052  RH  052%=      5-min Rain = 0
KCA1 232343Z 34010KT 15/05 A3002 RMK A01 T01510046  RH  049%=      5-min Rain = 0
KCA1 232344Z 35008KT 15/05 A3002 RMK A01 T01510047  RH  050%=      5-min Rain = 0
KCA1 232345Z 35010KT 15/05 A3002 RMK A01 T01510048  RH  050%=      5-min Rain = 0
KCA1 232346Z 34008KT 15/05 A3002 RMK A01 T01510047  RH  050%=      5-min Rain = 0
KCA1 232347Z 34011KT 15/05 A3002 RMK A01 T01510047  RH  050%=      5-min Rain = 0
KCA1 232348Z 34011KT 15/05 A3002 RMK A01 T01510045  RH  049%=      5-min Rain = 0
KCA1 232349Z 35010KT 15/04 A3002 RMK A01 T01510044  RH  049%=      5-min Rain = 0
KCA1 232350Z 35008KT 15/05 A3002 RMK A01 T01510046  RH  049%=      5-min Rain = 0
KCA1 232351Z 34007KT 15/05 A3002 RMK A01 T01510046  RH  050%=      5-min Rain = 0
KCA1 232352Z 34007KT 15/05 A3002 RMK A01 T01510047  RH  050%=      5-min Rain = 0
KCA1 232353Z 33007KT 15/05 A3002 RMK A01 T01510048  RH  050%=      5-min Rain = 0
KCA1 232354Z 35008KT 15/05 A3002 RMK A01 T01510048  RH  050%=      5-min Rain = 0
KCA1 232355Z 34008KT 15/05 A3002 RMK A01 T01520048  RH  050%=      5-min Rain = 0
KCA1 232356Z 33010KT 15/04 A3002 RMK A01 T01520043  RH  048%=      5-min Rain = 0
KCA1 232357Z 34011KT 15/04 A3002 RMK A01 T01520043  RH  048%=      5-min Rain = 0
KCA1 232358Z 34010KT 15/04 A3002 RMK A01 T01510042  RH  048%=      5-min Rain = 0
KCA1 232359Z 34010KT 15/04 A3002 RMK A01 T01510042  RH  048%=      5-min Rain = 0
KCA1 240000Z 34009KT 15/04 A3002 RMK A01 T01510040  RH  047%=      5-min Rain = 0
KCA1 240001Z 33007KT 15/04 A3002 RMK A01 T01510041  RH  048%=      5-min Rain = 0
KCA1 240002Z 33007KT 15/04 A3002 RMK A01 T01510044  RH  049%=      5-min Rain = 0
KCA1 240003Z 31008KT 15/04 A3002 RMK A01 T01510044  RH  049%=      5-min Rain = 0
KCA1 240004Z 31010KT 15/04 A3002 RMK A01 T01510041  RH  048%=      5-min Rain = 0
KCA1 240005Z 33011KT 15/04 A3002 RMK A01 T01510040  RH  047%=      5-min Rain = 0
KCA1 240006Z 33010KT 15/04 A3002 RMK A01 T01500039  RH  047%=      5-min Rain = 0
KCA1 240007Z 33008KT 15/04 A3002 RMK A01 T01500041  RH  048%=      5-min Rain = 0
KCA1 240008Z 33008KT 15/04 A3002 RMK A01 T01500044  RH  049%=      5-min Rain = 0
KCA1 240009Z 32009KT 15/05 A3002 RMK A01 T01500045  RH  049%=      5-min Rain = 0
KCA1 240010Z 33010KT 15/04 A3002 RMK A01 T01500043  RH  049%=      5-min Rain = 0
KCA1 240011Z 34009KT 15/04 A3002 RMK A01 T01500041  RH  048%=      5-min Rain = 0
KCA1 240012Z 34007KT 15/04 A3002 RMK A01 T01500041  RH  048%=      5-min Rain = 0
KCA1 240013Z 32007KT 15/04 A3002 RMK A01 T01500043  RH  049%=      5-min Rain = 0
KCA1 240014Z 33010KT 15/04 A3002 RMK A01 T01500041  RH  048%=      5-min Rain = 0
KCA1 240015Z 34008KT 15/04 A3002 RMK A01 T01490039  RH  048%=      5-min Rain = 0
KCA1 240016Z 32008KT 15/04 A3002 RMK A01 T01490040  RH  048%=      5-min Rain = 0
KCA1 240017Z 32007KT 15/04 A3002 RMK A01 T01490041  RH  048%=      5-min Rain = 0
KCA1 240018Z 32008KT 15/04 A3002 RMK A01 T01490040  RH  048%=      5-min Rain = 0
KCA1 240019Z 32009KT 15/04 A3002 RMK A01 T01490042  RH  049%=      5-min Rain = 0
KCA1 240020Z 32008KT 15/04 A3002 RMK A01 T01490043  RH  049%=      5-min Rain = 0
KCA1 240021Z 32008KT 15/04 A3002 RMK A01 T01490043  RH  049%=      5-min Rain = 0
KCA1 240022Z 32008KT 15/04 A3002 RMK A01 T01490044  RH  049%=      5-min Rain = 0
KCA1 240023Z 32011KT 15/04 A3002 RMK A01 T01480043  RH  049%=      5-min Rain = 0
KCA1 240024Z 32012KT 15/04 A3002 RMK A01 T01480041  RH  049%=      5-min Rain = 0
KCA1 240025Z 33012KT 15/04 A3002 RMK A01 T01480038  RH  048%=      5-min Rain = 0
KCA1 240026Z 33010KT 15/04 A3002 RMK A01 T01470039  RH  048%=      5-min Rain = 0
KCA1 240027Z 33009KT 15/04 A3002 RMK A01 T01470041  RH  049%=      5-min Rain = 0
KCA1 240028Z 33010KT 15/04 A3002 RMK A01 T01470042  RH  049%=      5-min Rain = 0
KCA1 240029Z 33010KT 15/04 A3001 RMK A01 T01460040  RH  049%=      5-min Rain = 0
KCA1 240030Z 32008KT 15/04 A3002 RMK A01 T01460040  RH  049%=      5-min Rain = 0
KCA1 240031Z 34008KT 15/04 A3001 RMK A01 T01460041  RH  049%=      5-min Rain = 0
KCA1 240032Z 35010KT 15/04 A3001 RMK A01 T01460041  RH  049%=      5-min Rain = 0
KCA1 240033Z 34009KT 15/04 A3001 RMK A01 T01460042  RH  049%=      5-min Rain = 0
KCA1 240034Z 34010KT 15/04 A3001 RMK A01 T01460041  RH  049%=      5-min Rain = 0
KCA1 240035Z 33008KT 15/04 A3001 RMK A01 T01460040  RH  049%=      5-min Rain = 0
KCA1 240036Z 32007KT 15/04 A3001 RMK A01 T01450042  RH  050%=      5-min Rain = 0
KCA1 240037Z 32008KT 15/04 A3001 RMK A01 T01450043  RH  050%=      5-min Rain = 0
KCA1 240038Z 32007KT 15/04 A3001 RMK A01 T01450042  RH  050%=      5-min Rain = 0
KCA1 240039Z 33008KT 15/04 A3001 RMK A01 T01450041  RH  050%=      5-min Rain = 0
KCA1 240040Z 32007KT 15/04 A3001 RMK A01 T01450042  RH  050%=      5-min Rain = 0
KCA1 240041Z 32009KT 15/04 A3001 RMK A01 T01450042  RH  050%=      5-min Rain = 0
KCA1 240042Z 31008KT 14/04 A3001 RMK A01 T01440039  RH  049%=      5-min Rain = 0
KCA1 240043Z 31008KT 14/04 A3001 RMK A01 T01440040  RH  050%=      5-min Rain = 0
KCA1 240044Z 31008KT 14/04 A3001 RMK A01 T01440041  RH  050%=      5-min Rain = 0
KCA1 240045Z 30007KT 14/04 A3001 RMK A01 T01440039  RH  049%=      5-min Rain = 0
KCA1 240046Z 31007KT 14/04 A3001 RMK A01 T01440041  RH  050%=      5-min Rain = 0
KCA1 240047Z 32009KT 14/04 A3001 RMK A01 T01440040  RH  050%=      5-min Rain = 0
KCA1 240048Z 32009KT 14/04 A3001 RMK A01 T01440039  RH  049%=      5-min Rain = 0
KCA1 240049Z 33009KT 14/04 A3001 RMK A01 T01440039  RH  049%=      5-min Rain = 0
KCA1 240050Z 33009KT 14/04 A3002 RMK A01 T01440039  RH  049%=      5-min Rain = 0
KCA1 240051Z 33007KT 14/04 A3002 RMK A01 T01430040  RH  050%=      5-min Rain = 0
KCA1 240052Z 33007KT 14/04 A3002 RMK A01 T01440042  RH  050%=      5-min Rain = 0
KCA1 240053Z 32007KT 14/04 A3002 RMK A01 T01430042  RH  051%=      5-min Rain = 0
KCA1 240054Z 32009KT 14/04 A3002 RMK A01 T01430043  RH  051%=      5-min Rain = 0
KCA1 240055Z 32010KT 14/04 A3002 RMK A01 T01430039  RH  049%=      5-min Rain = 0
KCA1 240056Z 32010KT 14/04 A3002 RMK A01 T01430037  RH  049%=      5-min Rain = 0
KCA1 240057Z 32008KT 14/04 A3002 RMK A01 T01430038  RH  049%=      5-min Rain = 0
KCA1 240058Z 33007KT 14/04 A3002 RMK A01 T01430041  RH  050%=      5-min Rain = 0
KCA1 240059Z 33008KT 14/04 A3002 RMK A01 T01430040  RH  050%=      5-min Rain = 0
KCA1 240100Z 33008KT 14/04 A3002 RMK A01 T01430040  RH  050%=      5-min Rain = 0
KCA1 240101Z 33007KT 14/04 A3002 RMK A01 T01420039  RH  050%=      5-min Rain = 0
KCA1 240102Z 33007KT 14/04 A3002 RMK A01 T01420040  RH  050%=      5-min Rain = 0
KCA1 240103Z 33008KT 14/04 A3002 RMK A01 T01420040  RH  050%=      5-min Rain = 0
KCA1 240104Z 33008KT 14/04 A3002 RMK A01 T01420039  RH  050%=      5-min Rain = 0
KCA1 240105Z 33009KT 14/04 A3002 RMK A01 T01420041  RH  051%=      5-min Rain = 0
KCA1 240106Z 33008KT 14/04 A3002 RMK A01 T01410038  RH  050%=      5-min Rain = 0
KCA1 240107Z 32008KT 14/04 A3002 RMK A01 T01410040  RH  050%=      5-min Rain = 0
KCA1 240108Z 32007KT 14/04 A3002 RMK A01 T01410041  RH  051%=      5-min Rain = 0
KCA1 240109Z 33007KT 14/04 A3002 RMK A01 T01410042  RH  051%=      5-min Rain = 0
KCA1 240110Z 33007KT 14/04 A3002 RMK A01 T01400043  RH  052%=      5-min Rain = 0
KCA1 240111Z 33008KT 14/04 A3002 RMK A01 T01400042  RH  051%=      5-min Rain = 0
KCA1 240112Z 32007KT 14/04 A3002 RMK A01 T01400040  RH  051%=      5-min Rain = 0
KCA1 240113Z 32007KT 14/04 A3002 RMK A01 T01400040  RH  051%=      5-min Rain = 0
KCA1 240114Z 32008KT 14/04 A3002 RMK A01 T01400040  RH  051%=      5-min Rain = 0
KCA1 240115Z 33007KT 14/04 A3002 RMK A01 T01400041  RH  051%=      5-min Rain = 0
KCA1 240116Z 32007KT 14/04 A3002 RMK A01 T01400041  RH  051%=      5-min Rain = 0
KCA1 240117Z 33008KT 14/04 A3002 RMK A01 T01400041  RH  051%=      5-min Rain = 0
KCA1 240118Z 32006KT 14/04 A3002 RMK A01 T01390041  RH  052%=      5-min Rain = 0
KCA1 240119Z 33008KT 14/04 A3002 RMK A01 T01390042  RH  052%=      5-min Rain = 0
KCA1 240120Z 33007KT 14/04 A3002 RMK A01 T01390040  RH  051%=      5-min Rain = 0
KCA1 240121Z 32007KT 14/04 A3002 RMK A01 T01390042  RH  052%=      5-min Rain = 0
KCA1 240122Z 32007KT 14/04 A3002 RMK A01 T01390043  RH  052%=      5-min Rain = 0
KCA1 240123Z 32007KT 14/04 A3002 RMK A01 T01380042  RH  052%=      5-min Rain = 0
KCA1 240124Z 32007KT 14/04 A3002 RMK A01 T01390044  RH  053%=      5-min Rain = 0
KCA1 240125Z 32009KT 14/04 A3002 RMK A01 T01390042  RH  052%=      5-min Rain = 0
KCA1 240126Z 32008KT 14/04 A3002 RMK A01 T01380041  RH  052%=      5-min Rain = 0
KCA1 240127Z 32009KT 14/04 A3002 RMK A01 T01380041  RH  052%=      5-min Rain = 0
KCA1 240128Z 32009KT 14/04 A3002 RMK A01 T01380040  RH  052%=      5-min Rain = 0
KCA1 240129Z 32009KT 14/04 A3002 RMK A01 T01380040  RH  052%=      5-min Rain = 0
KCA1 240130Z 32007KT 14/04 A3002 RMK A01 T01380041  RH  052%=      5-min Rain = 0
KCA1 240131Z 32008KT 14/04 A3002 RMK A01 T01380043  RH  052%=      5-min Rain = 0
KCA1 240132Z 32007KT 14/04 A3002 RMK A01 T01380044  RH  053%=      5-min Rain = 0
KCA1 240133Z 32007KT 14/04 A3002 RMK A01 T01370043  RH  053%=      5-min Rain = 0
KCA1 240134Z 32009KT 14/04 A3002 RMK A01 T01370043  RH  053%=      5-min Rain = 0
KCA1 240135Z 32008KT 14/04 A3002 RMK A01 T01370043  RH  053%=      5-min Rain = 0
KCA1 240136Z 32007KT 14/04 A3002 RMK A01 T01370044  RH  053%=      5-min Rain = 0
KCA1 240137Z 32009KT 14/04 A3002 RMK A01 T01370043  RH  053%=      5-min Rain = 0
KCA1 240138Z 32007KT 14/04 A3002 RMK A01 T01360042  RH  053%=      5-min Rain = 0
KCA1 240139Z 33007KT 14/04 A3002 RMK A01 T01360042  RH  053%=      5-min Rain = 0
KCA1 240140Z 33008KT 14/04 A3002 RMK A01 T01360043  RH  053%=      5-min Rain = 0
KCA1 240141Z 32007KT 14/04 A3002 RMK A01 T01360042  RH  053%=      5-min Rain = 0
KCA1 240142Z 32008KT 14/04 A3002 RMK A01 T01350041  RH  053%=      5-min Rain = 0
KCA1 240143Z 33007KT 14/04 A3002 RMK A01 T01360041  RH  053%=      5-min Rain = 0
KCA1 240144Z 32009KT 14/04 A3002 RMK A01 T01350041  RH  053%=      5-min Rain = 0
KCA1 240145Z 32008KT 14/04 A3002 RMK A01 T01350040  RH  053%=      5-min Rain = 0
KCA1 240146Z 32009KT 14/04 A3002 RMK A01 T01350039  RH  053%=      5-min Rain = 0
KCA1 240147Z 33007KT 14/04 A3002 RMK A01 T01350040  RH  053%=      5-min Rain = 0
KCA1 240148Z 33009KT 13/04 A3002 RMK A01 T01340040  RH  053%=      5-min Rain = 0
KCA1 240149Z 32007KT 13/04 A3002 RMK A01 T01340041  RH  053%=      5-min Rain = 0
KCA1 240150Z 33007KT 13/04 A3002 RMK A01 T01340041  RH  053%=      5-min Rain = 0
KCA1 240151Z 33007KT 13/04 A3002 RMK A01 T01330041  RH  054%=      5-min Rain = 0
KCA1 240152Z 33007KT 13/04 A3002 RMK A01 T01320042  RH  054%=      5-min Rain = 0
KCA1 240153Z 33008KT 13/04 A3002 RMK A01 T01330042  RH  054%=      5-min Rain = 0
KCA1 240154Z 33008KT 13/04 A3002 RMK A01 T01320041  RH  054%=      5-min Rain = 0
KCA1 240155Z 33007KT 13/04 A3002 RMK A01 T01320041  RH  054%=      5-min Rain = 0
KCA1 240156Z 33007KT 13/04 A3002 RMK A01 T01320041  RH  054%=      5-min Rain = 0
KCA1 240157Z 33007KT 13/04 A3002 RMK A01 T01320041  RH  054%=      5-min Rain = 0
KCA1 240158Z 33007KT 13/04 A3002 RMK A01 T01320040  RH  054%=      5-min Rain = 0
KCA1 240159Z 33007KT 13/04 A3002 RMK A01 T01320040  RH  054%=      5-min Rain = 0
KCA1 240200Z 33007KT 13/04 A3002 RMK A01 T01320041  RH  054%=      5-min Rain = 0
KCA1 240201Z 33007KT 13/04 A3002 RMK A01 T01320041  RH  054%=      5-min Rain = 0
KCA1 240202Z 33006KT 13/04 A3002 RMK A01 T01320041  RH  054%=      5-min Rain = 0
KCA1 240203Z 33007KT 13/04 A3002 RMK A01 T01320042  RH  054%=      5-min Rain = 0
KCA1 240204Z 33007KT 13/04 A3002 RMK A01 T01320040  RH  054%=      5-min Rain = 0
KCA1 240205Z 33007KT 13/04 A3002 RMK A01 T01320039  RH  053%=      5-min Rain = 0
KCA1 240206Z 33007KT 13/04 A3002 RMK A01 T01320040  RH  054%=      5-min Rain = 0
KCA1 240207Z 33007KT 13/04 A3003 RMK A01 T01320040  RH  054%=      5-min Rain = 0
KCA1 240208Z 32009KT 13/04 A3003 RMK A01 T01320040  RH  054%=      5-min Rain = 0
KCA1 240209Z 33011KT 13/04 A3003 RMK A01 T01320039  RH  053%=      5-min Rain = 0
KCA1 240210Z 33009KT 13/04 A3003 RMK A01 T01310039  RH  054%=      5-min Rain = 0
KCA1 240211Z 33007KT 13/04 A3003 RMK A01 T01310040  RH  054%=      5-min Rain = 0
KCA1 240212Z 33008KT 13/04 A3003 RMK A01 T01300041  RH  055%=      5-min Rain = 0
KCA1 240213Z 33008KT 13/04 A3003 RMK A01 T01300041  RH  055%=      5-min Rain = 0
KCA1 240214Z 33008KT 13/04 A3003 RMK A01 T01290042  RH  055%=      5-min Rain = 0
KCA1 240215Z 34008KT 13/04 A3003 RMK A01 T01290042  RH  056%=      5-min Rain = 0
KCA1 240216Z 34008KT 13/04 A3003 RMK A01 T01280042  RH  056%=      5-min Rain = 0
KCA1 240217Z 34008KT 13/04 A3003 RMK A01 T01280041  RH  056%=      5-min Rain = 0
KCA1 240218Z 34008KT 13/04 A3003 RMK A01 T01280041  RH  056%=      5-min Rain = 0
KCA1 240219Z 35008KT 13/04 A3003 RMK A01 T01270041  RH  056%=      5-min Rain = 0
KCA1 240220Z 35009KT 13/04 A3003 RMK A01 T01270042  RH  056%=      5-min Rain = 0
KCA1 240221Z 35008KT 13/04 A3002 RMK A01 T01270042  RH  056%=      5-min Rain = 0
KCA1 240222Z 35007KT 13/04 A3002 RMK A01 T01270043  RH  057%=      5-min Rain = 0
KCA1 240223Z 35008KT 13/04 A3002 RMK A01 T01260043  RH  057%=      5-min Rain = 0
KCA1 240224Z 34007KT 13/04 A3002 RMK A01 T01260044  RH  057%=      5-min Rain = 0
KCA1 240225Z 35008KT 13/04 A3002 RMK A01 T01250043  RH  057%=      5-min Rain = 0
KCA1 240226Z 35009KT 13/04 A3002 RMK A01 T01250042  RH  057%=      5-min Rain = 0
KCA1 240227Z 35009KT 13/04 A3002 RMK A01 T01250042  RH  057%=      5-min Rain = 0
KCA1 240228Z 35007KT 13/04 A3002 RMK A01 T01250044  RH  058%=      5-min Rain = 0
KCA1 240229Z 36007KT 13/05 A3002 RMK A01 T01250045  RH  058%=      5-min Rain = 0
KCA1 240230Z 36008KT 12/05 A3002 RMK A01 T01240045  RH  058%=      5-min Rain = 0
KCA1 240231Z 36008KT 12/05 A3002 RMK A01 T01240045  RH  058%=      5-min Rain = 0
KCA1 240232Z 00008KT 12/05 A3002 RMK A01 T01240045  RH  059%=      5-min Rain = 0
KCA1 240233Z 00007KT 12/05 A3003 RMK A01 T01240045  RH  058%=      5-min Rain = 0
KCA1 240234Z 35007KT 12/05 A3003 RMK A01 T01240046  RH  059%=      5-min Rain = 0
KCA1 240235Z 35007KT 12/05 A3003 RMK A01 T01240046  RH  059%=      5-min Rain = 0
KCA1 240236Z 35006KT 12/05 A3003 RMK A01 T01240047  RH  059%=      5-min Rain = 0
KCA1 240237Z 35007KT 12/05 A3003 RMK A01 T01240047  RH  060%=      5-min Rain = 0
KCA1 240238Z 35006KT 12/05 A3003 RMK A01 T01230047  RH  060%=      5-min Rain = 0
KCA1 240239Z 35007KT 12/05 A3003 RMK A01 T01230048  RH  060%=      5-min Rain = 0
KCA1 240240Z 34007KT 12/05 A3003 RMK A01 T01230048  RH  060%=      5-min Rain = 0
KCA1 240241Z 34007KT 12/05 A3003 RMK A01 T01230048  RH  060%=      5-min Rain = 0
KCA1 240242Z 34007KT 12/05 A3003 RMK A01 T01230049  RH  060%=      5-min Rain = 0
KCA1 240243Z 34007KT 12/05 A3003 RMK A01 T01230049  RH  061%=      5-min Rain = 0
KCA1 240244Z 34006KT 12/05 A3003 RMK A01 T01230050  RH  061%=      5-min Rain = 0
KCA1 240245Z 34006KT 12/05 A3003 RMK A01 T01230051  RH  062%=      5-min Rain = 0
KCA1 240246Z 34007KT 12/05 A3003 RMK A01 T01220050  RH  061%=      5-min Rain = 0
KCA1 240247Z 34006KT 12/05 A3003 RMK A01 T01220050  RH  061%=      5-min Rain = 0
KCA1 240248Z 34006KT 12/05 A3003 RMK A01 T01220051  RH  061%=      5-min Rain = 0
KCA1 240249Z 34005KT 12/05 A3003 RMK A01 T01220051  RH  062%=      5-min Rain = 0
KCA1 240250Z 34007KT 12/05 A3003 RMK A01 T01220052  RH  062%=      5-min Rain = 0
KCA1 240251Z 34006KT 12/05 A3003 RMK A01 T01220051  RH  062%=      5-min Rain = 0
KCA1 240252Z 34007KT 12/05 A3003 RMK A01 T01220051  RH  062%=      5-min Rain = 0
KCA1 240253Z 34007KT 12/05 A3003 RMK A01 T01220051  RH  062%=      5-min Rain = 0
KCA1 240254Z 34006KT 12/05 A3003 RMK A01 T01210052  RH  062%=      5-min Rain = 0
KCA1 240255Z 34007KT 12/05 A3003 RMK A01 T01210052  RH  063%=      5-min Rain = 0
KCA1 240256Z 33007KT 12/05 A3003 RMK A01 T01210052  RH  063%=      5-min Rain = 0
KCA1 240257Z 34007KT 12/05 A3003 RMK A01 T01210052  RH  063%=      5-min Rain = 0
KCA1 240258Z 34007KT 12/05 A3003 RMK A01 T01210052  RH  063%=      5-min Rain = 0
KCA1 240259Z 34007KT 12/05 A3003 RMK A01 T01210052  RH  063%=      5-min Rain = 0
KCA1 240300Z 34007KT 12/05 A3003 RMK A01 T01200052  RH  063%=      5-min Rain = 0
KCA1 240301Z 34006KT 12/05 A3003 RMK A01 T01200053  RH  064%=      5-min Rain = 0
KCA1 240302Z 34006KT 12/05 A3003 RMK A01 T01190053  RH  064%=      5-min Rain = 0
KCA1 240303Z 34006KT 12/05 A3003 RMK A01 T01190053  RH  064%=      5-min Rain = 0
KCA1 240304Z 34006KT 12/05 A3003 RMK A01 T01190053  RH  064%=      5-min Rain = 0
KCA1 240305Z 34006KT 12/05 A3003 RMK A01 T01180053  RH  064%=      5-min Rain = 0
KCA1 240306Z 34006KT 12/05 A3003 RMK A01 T01180052  RH  064%=      5-min Rain = 0
KCA1 240307Z 34006KT 12/05 A3003 RMK A01 T01180052  RH  064%=      5-min Rain = 0
KCA1 240308Z 34006KT 12/05 A3003 RMK A01 T01170053  RH  064%=      5-min Rain = 0
KCA1 240309Z 34006KT 12/05 A3003 RMK A01 T01170053  RH  065%=      5-min Rain = 0
KCA1 240310Z 34006KT 12/05 A3003 RMK A01 T01160054  RH  065%=      5-min Rain = 0
KCA1 240311Z 34006KT 12/05 A3003 RMK A01 T01150053  RH  066%=      5-min Rain = 0
KCA1 240312Z 34006KT 12/05 A3003 RMK A01 T01150053  RH  066%=      5-min Rain = 0
KCA1 240313Z 34006KT 12/05 A3003 RMK A01 T01150054  RH  066%=      5-min Rain = 0
KCA1 240314Z 34005KT 11/05 A3003 RMK A01 T01140054  RH  066%=      5-min Rain = 0
KCA1 240315Z 34006KT 11/05 A3003 RMK A01 T01130054  RH  067%=      5-min Rain = 0
KCA1 240316Z 34006KT 11/05 A3003 RMK A01 T01130054  RH  067%=      5-min Rain = 0
KCA1 240317Z 34005KT 11/05 A3003 RMK A01 T01120054  RH  067%=      5-min Rain = 0
KCA1 240318Z 34006KT 11/05 A3003 RMK A01 T01120054  RH  067%=      5-min Rain = 0
KCA1 240319Z 34005KT 11/06 A3003 RMK A01 T01110055  RH  068%=      5-min Rain = 0
KCA1 240320Z 34006KT 11/06 A3003 RMK A01 T01110055  RH  068%=      5-min Rain = 0
KCA1 240321Z 33005KT 11/06 A3003 RMK A01 T01110055  RH  068%=      5-min Rain = 0
KCA1 240322Z 33005KT 11/06 A3003 RMK A01 T01110056  RH  069%=      5-min Rain = 0
KCA1 240323Z 34005KT 11/06 A3003 RMK A01 T01100056  RH  069%=      5-min Rain = 0
KCA1 240324Z 33005KT 11/06 A3003 RMK A01 T01100056  RH  069%=      5-min Rain = 0
KCA1 240325Z 33005KT 11/06 A3003 RMK A01 T01100056  RH  069%=      5-min Rain = 0
KCA1 240326Z 33006KT 11/06 A3003 RMK A01 T01100057  RH  070%=      5-min Rain = 0
KCA1 240327Z 34006KT 11/06 A3003 RMK A01 T01100057  RH  070%=      5-min Rain = 0
KCA1 240328Z 33006KT 11/06 A3003 RMK A01 T01090056  RH  070%=      5-min Rain = 0
KCA1 240329Z 33006KT 11/06 A3003 RMK A01 T01100056  RH  070%=      5-min Rain = 0
KCA1 240330Z 33006KT 11/06 A3003 RMK A01 T01100056  RH  070%=      5-min Rain = 0
KCA1 240331Z 33007KT 11/06 A3003 RMK A01 T01100056  RH  070%=      5-min Rain = 0
KCA1 240332Z 33008KT 11/06 A3003 RMK A01 T01100056  RH  069%=      5-min Rain = 0
KCA1 240333Z 33006KT 11/06 A3003 RMK A01 T01110056  RH  069%=      5-min Rain = 0
KCA1 240334Z 32006KT 11/06 A3003 RMK A01 T01110057  RH  069%=      5-min Rain = 0
KCA1 240335Z 33008KT 11/06 A3003 RMK A01 T01120057  RH  069%=      5-min Rain = 0
KCA1 240336Z 33008KT 11/06 A3002 RMK A01 T01120056  RH  069%=      5-min Rain = 0
KCA1 240337Z 33006KT 11/06 A3002 RMK A01 T01130057  RH  068%=      5-min Rain = 0
KCA1 240338Z 33006KT 11/06 A3002 RMK A01 T01120057  RH  069%=      5-min Rain = 0
KCA1 240339Z 33008KT 11/06 A3002 RMK A01 T01120058  RH  069%=      5-min Rain = 0
KCA1 240340Z 33007KT 11/06 A3002 RMK A01 T01120057  RH  069%=      5-min Rain = 0
KCA1 240341Z 33006KT 11/06 A3002 RMK A01 T01120057  RH  069%=      5-min Rain = 0
KCA1 240342Z 33005KT 11/06 A3002 RMK A01 T01130058  RH  069%=      5-min Rain = 0
KCA1 240343Z 33006KT 11/06 A3002 RMK A01 T01120058  RH  069%=      5-min Rain = 0
KCA1 240344Z 32006KT 11/06 A3002 RMK A01 T01120058  RH  069%=      5-min Rain = 0
KCA1 240345Z 32006KT 11/06 A3002 RMK A01 T01120059  RH  070%=      5-min Rain = 0
KCA1 240346Z 33006KT 11/06 A3002 RMK A01 T01120058  RH  070%=      5-min Rain = 0
KCA1 240347Z 32006KT 11/06 A3002 RMK A01 T01110058  RH  070%=      5-min Rain = 0
KCA1 240348Z 32006KT 11/06 A3002 RMK A01 T01120059  RH  070%=      5-min Rain = 0
KCA1 240349Z 32006KT 11/06 A3002 RMK A01 T01120059  RH  070%=      5-min Rain = 0
KCA1 240350Z 32006KT 11/06 A3002 RMK A01 T01120059  RH  070%=      5-min Rain = 0
KCA1 240351Z 32006KT 11/06 A3002 RMK A01 T01120060  RH  070%=      5-min Rain = 0
KCA1 240352Z 32007KT 11/06 A3002 RMK A01 T01110059  RH  070%=      5-min Rain = 0
KCA1 240353Z 32006KT 11/06 A3002 RMK A01 T01110060  RH  070%=      5-min Rain = 0
KCA1 240354Z 32008KT 11/06 A3002 RMK A01 T01110060  RH  071%=      5-min Rain = 0
KCA1 240355Z 32007KT 11/06 A3002 RMK A01 T01110060  RH  071%=      5-min Rain = 0
KCA1 240356Z 32006KT 11/06 A3002 RMK A01 T01110060  RH  071%=      5-min Rain = 0
KCA1 240357Z 32007KT 11/06 A3001 RMK A01 T01100060  RH  071%=      5-min Rain = 0
KCA1 240358Z 33008KT 11/06 A3001 RMK A01 T01100060  RH  072%=      5-min Rain = 0
KCA1 240359Z 33007KT 11/06 A3001 RMK A01 T01090060  RH  072%=      5-min Rain = 0
KCA1 240400Z 33007KT 11/06 A3001 RMK A01 T01090060  RH  072%=      5-min Rain = 0
KCA1 240401Z 33006KT 11/06 A3001 RMK A01 T01080060  RH  072%=      5-min Rain = 0
KCA1 240402Z 32006KT 11/06 A3001 RMK A01 T01080060  RH  073%=      5-min Rain = 0
KCA1 240403Z 32005KT 11/06 A3001 RMK A01 T01070061  RH  073%=      5-min Rain = 0
KCA1 240404Z 32006KT 11/06 A3001 RMK A01 T01060061  RH  074%=      5-min Rain = 0
KCA1 240405Z 32006KT 11/06 A3001 RMK A01 T01050061  RH  074%=      5-min Rain = 0
KCA1 240406Z 32006KT 11/06 A3001 RMK A01 T01050061  RH  075%=      5-min Rain = 0
KCA1 240407Z 33006KT 10/06 A3001 RMK A01 T01040061  RH  075%=      5-min Rain = 0
KCA1 240408Z 32007KT 10/06 A3001 RMK A01 T01030061  RH  075%=      5-min Rain = 0
KCA1 240409Z 32007KT 10/06 A3001 RMK A01 T01030061  RH  075%=      5-min Rain = 0
KCA1 240410Z 32007KT 10/06 A3001 RMK A01 T01020061  RH  076%=      5-min Rain = 0
KCA1 240411Z 32007KT 10/06 A3001 RMK A01 T01010061  RH  076%=      5-min Rain = 0
KCA1 240412Z 32007KT 10/06 A30 RMK A01 T01010061  RH  076%=      5-min Rain = 0
KCA1 240413Z 32007KT 10/06 A30 RMK A01 T01000061  RH  076%=      5-min Rain = 0
KCA1 240414Z 32007KT 10/06 A30 RMK A01 T01000061  RH  077%=      5-min Rain = 0
KCA1 240415Z 33007KT 10/06 A30 RMK A01 T00990060  RH  077%=      5-min Rain = 0
KCA1 240416Z 33007KT 10/06 A30 RMK A01 T00990061  RH  077%=      5-min Rain = 0
KCA1 240417Z 32006KT 10/06 A30 RMK A01 T00990061  RH  077%=      5-min Rain = 0
KCA1 240418Z 32006KT 10/06 A30 RMK A01 T00990061  RH  077%=      5-min Rain = 0
KCA1 240419Z 32006KT 10/06 A30 RMK A01 T00990060  RH  077%=      5-min Rain = 0
KCA1 240420Z 32006KT 10/06 A3001 RMK A01 T00980060  RH  077%=      5-min Rain = 0
KCA1 240421Z 32005KT 10/06 A3001 RMK A01 T00980059  RH  077%=      5-min Rain = 0
KCA1 240422Z 32005KT 10/06 A3001 RMK A01 T00980060  RH  077%=      5-min Rain = 0
KCA1 240423Z 32004KT 10/06 A3001 RMK A01 T00980059  RH  077%=      5-min Rain = 0
KCA1 240424Z 32005KT 10/06 A3001 RMK A01 T00970059  RH  077%=      5-min Rain = 0
KCA1 240425Z 32005KT 10/06 A3001 RMK A01 T00970059  RH  077%=      5-min Rain = 0
KCA1 240426Z 32005KT 10/06 A3001 RMK A01 T00970058  RH  077%=      5-min Rain = 0
KCA1 240427Z 31005KT 10/06 A3001 RMK A01 T00970058  RH  077%=      5-min Rain = 0
KCA1 240428Z 31004KT 10/06 A3001 RMK A01 T00970058  RH  077%=      5-min Rain = 0
KCA1 240429Z 31005KT 10/06 A3001 RMK A01 T00960058  RH  077%=      5-min Rain = 0
KCA1 240430Z 31005KT 10/06 A3001 RMK A01 T00960058  RH  077%=      5-min Rain = 0
KCA1 240431Z 31005KT 10/06 A3001 RMK A01 T00950058  RH  077%=      5-min Rain = 0
KCA1 240432Z 30005KT 09/06 A3001 RMK A01 T00940058  RH  078%=      5-min Rain = 0
KCA1 240433Z 30005KT 09/06 A3001 RMK A01 T00940057  RH  078%=      5-min Rain = 0
KCA1 240434Z 29005KT 09/06 A3001 RMK A01 T00930057  RH  078%=      5-min Rain = 0
KCA1 240435Z 29004KT 09/06 A3001 RMK A01 T00920057  RH  079%=      5-min Rain = 0
KCA1 240436Z 29005KT 09/06 A3001 RMK A01 T00920057  RH  079%=      5-min Rain = 0
KCA1 240437Z 29005KT 09/06 A3001 RMK A01 T00920057  RH  079%=      5-min Rain = 0
KCA1 240438Z 28005KT 09/06 A3001 RMK A01 T00920057  RH  079%=      5-min Rain = 0
KCA1 240439Z 28005KT 09/06 A3001 RMK A01 T00910057  RH  079%=      5-min Rain = 0
KCA1 240440Z 28006KT 09/06 A30 RMK A01 T00910056  RH  079%=      5-min Rain = 0
KCA1 240441Z 28006KT 09/06 A30 RMK A01 T00910056  RH  079%=      5-min Rain = 0
KCA1 240442Z 29006KT 09/06 A30 RMK A01 T00910056  RH  079%=      5-min Rain = 0
KCA1 240443Z 29006KT 09/06 A30 RMK A01 T00900056  RH  079%=      5-min Rain = 0
KCA1 240444Z 30007KT 09/06 A30 RMK A01 T00890056  RH  080%=      5-min Rain = 0
KCA1 240445Z 30007KT 09/06 A2999 RMK A01 T00880056  RH  081%=      5-min Rain = 0
KCA1 240446Z 30007KT 09/06 A2999 RMK A01 T00870056  RH  081%=      5-min Rain = 0
KCA1 240447Z 30007KT 09/06 A2999 RMK A01 T00870057  RH  082%=      5-min Rain = 0
KCA1 240448Z 30007KT 09/06 A2999 RMK A01 T00860056  RH  082%=      5-min Rain = 0
KCA1 240449Z 30008KT 09/06 A2999 RMK A01 T00850056  RH  083%=      5-min Rain = 0
KCA1 240450Z 30008KT 08/06 A2999 RMK A01 T00830056  RH  083%=      5-min Rain = 0
KCA1 240451Z 30008KT 08/06 A2999 RMK A01 T00840056  RH  083%=      5-min Rain = 0
KCA1 240452Z 30007KT 08/06 A2999 RMK A01 T00840057  RH  083%=      5-min Rain = 0
KCA1 240453Z 30007KT 09/06 A2999 RMK A01 T00850057  RH  083%=      5-min Rain = 0
KCA1 240454Z 30007KT 09/06 A2999 RMK A01 T00850057  RH  082%=      5-min Rain = 0
KCA1 240455Z 30006KT 09/06 A2999 RMK A01 T00850056  RH  082%=      5-min Rain = 0
KCA1 240456Z 30006KT 09/06 A2999 RMK A01 T00850057  RH  082%=      5-min Rain = 0
KCA1 240457Z 30006KT 09/06 A2999 RMK A01 T00850056  RH  082%=      5-min Rain = 0
KCA1 240458Z 30006KT 09/06 A2999 RMK A01 T00850056  RH  082%=      5-min Rain = 0
KCA1 240459Z 30006KT 09/06 A2999 RMK A01 T00850056  RH  082%=      5-min Rain = 0

Page generated in 0.0918 seconds.